Flight Track Log - Related Links

Times and Time Zones

All times are in EDT time to prevent confusion due to time zone crossing. See the DAL268 flight status page for this flight to view local times or setup timezone preferences in your user account.

Time Position Orientation Groundspeed Altitude Reporting Facility
EDT Latitude Longitude Course Direction KTS MPH feet Rate Location/Type
Thu 09:34:06 PM 40.6440 -73.7680 180° South 80 92  Level FlightAware ADS-B
Thu 09:34:26 PM 40.6350 -73.7760 214° Southwest 145 167 300 Level FlightAware ADS-B
Thu 09:34:46 PM 40.6210 -73.7860 208° Southwest 179 206 200 1,385 Climbing FlightAware ADS-B
Thu 09:35:05 PM 40.6080 -73.7970 213° Southwest 174 200 900 1,846 Climbing FlightAware ADS-B
Thu 09:35:25 PM 40.5930 -73.8090 211° Southwest 186 214 1,400 1,067 Climbing FlightAware ADS-B
Thu 09:35:50 PM 40.5730 -73.8240 210° Southwest 217 250 1,700 828 Climbing FlightAware ADS-B
Thu 09:35:54 PM 40.5700 -73.8260 207° Southwest 224 258 1,800 600 Climbing FlightAware ADS-B
Thu 09:36:00 PM 40.5630 -73.8270 186° South 235 270 1,800 545 Level FlightAware ADS-B
Thu 09:36:05 PM 40.5590 -73.8280 191° South 244 281 1,900 1,200 Climbing FlightAware ADS-B
Thu 09:36:30 PM 40.5320 -73.8100 153° Southeast 270 311 2,400 1,455 Climbing FlightAware ADS-B
Thu 09:36:38 PM 40.5260 -73.7990 126° Southeast 277 319 2,700 1,600 Climbing FlightAware ADS-B
Thu 09:36:45 PM 40.5220 -73.7870 114° Southeast 286 329 2,800 1,091 Climbing FlightAware ADS-B
Thu 09:36:49 PM 40.5210 -73.7800 101° East 292 336 2,900 1,091 Climbing FlightAware ADS-B
Thu 09:36:56 PM 40.5210 -73.7690 90° East 298 343 3,000 2,276 Climbing FlightAware ADS-B
Thu 09:37:18 PM 40.5290 -73.7310 75° East 298 343 4,000 2,800 Climbing FlightAware ADS-B
Thu 09:37:26 PM 40.5360 -73.7190 52° Northeast 298 343 4,400 2,625 Climbing FlightAware ADS-B
Thu 09:37:34 PM 40.5450 -73.7100 37° Northeast 298 343 4,700 2,357 Climbing FlightAware ADS-B
Thu 09:37:54 PM 40.5690 -73.6900 32° Northeast 300 345 5,500 2,550 Climbing FlightAware ADS-B
Thu 09:38:14 PM 40.5930 -73.6730 28° Northeast 303 349 6,400 2,651 Climbing FlightAware ADS-B
Thu 09:38:37 PM 40.6220 -73.6520 29° Northeast 306 352 7,400 2,512 Climbing FlightAware ADS-B
Thu 09:38:57 PM 40.6480 -73.6340 28° Northeast 313 360 8,200 2,250 Climbing FlightAware ADS-B
Thu 09:39:17 PM 40.6730 -73.6170 27° Northeast 318 366 8,900 2,000 Climbing FlightAware ADS-B
Thu 09:39:39 PM 40.7030 -73.5970 27° Northeast 328 377 9,600 1,895 Climbing FlightAware ADS-B
Thu 09:40:14 PM 40.7520 -73.5660 26° Northeast 343 395 10,700 1,437 Climbing FlightAware ADS-B
Thu 09:40:50 PM 40.8050 -73.5300 27° Northeast 379 436 11,300 1,075 Climbing FlightAware ADS-B
Thu 09:41:21 PM 40.8570 -73.4940 28° Northeast 406 467 11,900 1,324 Climbing FlightAware ADS-B
Thu 09:41:58 PM 40.9150 -73.4410 35° Northeast 433 498 12,800 1,890 Climbing FlightAware ADS-B
Thu 09:42:34 PM 40.9700 -73.3770 41° Northeast 439 505 14,200 2,083 Climbing FlightAware ADS-B
Thu 09:43:10 PM 41.0250 -73.3120 42° Northeast 451 519 15,300 2,029 Climbing FlightAware ADS-B
Thu 09:43:42 PM 41.0740 -73.2520 43° Northeast 455 524 16,500 2,087 Climbing FlightAware ADS-B
Thu 09:44:19 PM 41.1340 -73.1790 42° Northeast 462 532 17,700 1,808 Climbing FlightAware ADS-B
Thu 09:44:55 PM 41.1900 -73.1090 43° Northeast 469 540 18,700 1,676 Climbing FlightAware ADS-B
Thu 09:45:27 PM 41.2410 -73.0480 42° Northeast 477 549 19,600 1,714 Climbing FlightAware ADS-B
Thu 09:46:05 PM 41.3040 -72.9690 43° Northeast 483 556 20,700 1,629 Climbing FlightAware ADS-B
Thu 09:46:37 PM 41.3560 -72.9040 43° Northeast 487 560 21,500 1,652 Climbing FlightAware ADS-B
Thu 09:47:14 PM 41.4180 -72.8270 43° Northeast 491 565 22,600 1,583 Climbing FlightAware ADS-B
Thu 09:47:49 PM 41.4750 -72.7570 43° Northeast 495 570 23,400 1,352 Climbing FlightAware ADS-B
Thu 09:48:25 PM 41.5360 -72.6810 43° Northeast 502 578 24,200 1,304 Climbing FlightAware ADS-B
Thu 09:48:58 PM 41.5930 -72.6080 44° Northeast 505 581 24,900 1,324 Climbing FlightAware ADS-B
Thu 09:49:33 PM 41.6470 -72.5280 48° Northeast 514 592 25,700 1,200 Climbing FlightAware ADS-B
Thu 09:50:08 PM 41.6940 -72.4320 57° Northeast 522 601 26,300 1,059 Climbing FlightAware ADS-B
Thu 09:50:41 PM 41.7360 -72.3400 59° Northeast 527 606 26,900 1,000 Climbing FlightAware ADS-B
Thu 09:51:14 PM 41.7750 -72.2530 59° Northeast 533 613 27,400 904 Climbing FlightAware ADS-B
Thu 09:51:54 PM 41.8280 -72.1330 59° Northeast 540 621 28,000 1,000 Climbing FlightAware ADS-B
Thu 09:52:26 PM 41.8650 -72.0540 58° Northeast 538 619 28,600 1,343 Climbing FlightAware ADS-B
Thu 09:53:01 PM 41.9200 -71.9510 54° Northeast 528 608 29,500 1,350 Climbing FlightAware ADS-B
Thu 09:53:46 PM 41.9840 -71.8330 54° Northeast 531 611 30,400 1,125 Climbing FlightAware ADS-B
Thu 09:54:21 PM 42.0360 -71.7380 54° Northeast 527 606 31,000 600 Climbing FlightAware ADS-B
Thu 09:54:56 PM 42.0870 -71.6440 54° Northeast 529 609 31,100 92 Climbing FlightAware ADS-B
Thu 09:55:26 PM 42.1137 -71.5959 53° Northeast 533 613 31,100  Level FlightAware ADS-B (EPKK / KRK)
Thu 09:56:11 PM 42.1960 -71.4430 54° Northeast 526 605 31,100  Level FlightAware ADS-B
Thu 09:56:37 PM 42.2279 -71.3839 54° Northeast 531 611 31,100  Level FlightAware ADS-B (EPKK / KRK)
Thu 09:57:08 PM 42.2784 -71.2899 54° Northeast 530 610 31,100  Level FlightAware ADS-B (EPKK / KRK)
Thu 09:57:39 PM 42.3229 -71.2066 54° Northeast 531 611 31,100  Level FlightAware ADS-B (EPKK / KRK)
Thu 09:58:29 PM 42.3967 -71.0666 54° Northeast 532 612 31,100  Level FlightAware ADS-B (EPKK / KRK)
Thu 09:59:00 PM 42.4393 -70.9856 55° Northeast 532 612 31,100  Level FlightAware ADS-B (EPKK / KRK)
Thu 09:59:33 PM 42.4868 -70.8962 54° Northeast 533 613 31,100  Level FlightAware ADS-B (EPKK / KRK)
Thu 10:00:03 PM 42.5293 -70.8172 54° Northeast 533 613 31,100  Level FlightAware ADS-B (EPKK / KRK)
Thu 10:00:35 PM 42.5743 -70.7303 55° Northeast 532 612 31,100  Level FlightAware ADS-B (EPKK / KRK)
Thu 10:01:06 PM 42.6190 -70.6461 54° Northeast 532 612 31,100  Level FlightAware ADS-B (EPKK / KRK)
Thu 10:01:36 PM 42.6630 -70.5618 55° Northeast 532 612 31,100  Level FlightAware ADS-B (EPKK / KRK)
Thu 10:02:07 PM 42.7065 -70.4774 55° Northeast 533 613 31,100  Level FlightAware ADS-B (EPKK / KRK)
Thu 10:02:41 PM 42.7552 -70.3843 55° Northeast 533 613 31,100  Level FlightAware ADS-B (EPKK / KRK)
Thu 10:03:11 PM 42.7977 -70.3023 55° Northeast 532 612 31,100  Level FlightAware ADS-B (EPKK / KRK)
Thu 10:03:42 PM 42.8410 -70.2201 54° Northeast 532 612 31,100  Level FlightAware ADS-B (EPKK / KRK)
Thu 10:04:12 PM 42.8824 -70.1382 55° Northeast 531 611 31,100  Level FlightAware ADS-B (EPKK / KRK)
Thu 10:04:51 PM 42.9157 -70.0752 54° Northeast 531 611 31,100 -66 Level FlightAware ADS-B (EPKK / KRK)
Thu 10:05:43 PM 43.0079 -69.8937 55° Northeast 532 612 31,000  Descending FlightAware ADS-B (EPKK / KRK)
Thu 10:06:19 PM 43.0575 -69.7972 55° Northeast 532 612 31,100 83 Climbing FlightAware ADS-B (EPKK / KRK)
Thu 10:06:55 PM 43.1125 -69.6896 55° Northeast 533 613 31,100  Level FlightAware ADS-B (EPKK / KRK)
Thu 10:07:26 PM 43.1530 -69.6090 55° Northeast 533 613 31,100  Level FlightAware ADS-B
Thu 10:07:58 PM 43.2084 -69.5008 55° Northeast 534 615 31,100  Level FlightAware ADS-B
Thu 10:08:28 PM 43.2513 -69.4145 56° Northeast 534 615 31,100  Level FlightAware ADS-B
Thu 10:09:02 PM 43.2860 -69.3480 54° Northeast 534 615 31,100  Level FlightAware ADS-B
Thu 10:09:08 PM 43.3053 -69.3083 56° Northeast 535 616 31,100  Level FlightAware ADS-B
Thu 10:09:49 PM 43.3575 -69.2019 56° Northeast 535 616 31,100  Level FlightAware ADS-B
Thu 10:10:29 PM 43.4205 -69.0757 55° Northeast 535 616 31,100  Level FlightAware ADS-B
Thu 10:11:01 PM 43.4628 -68.9912 55° Northeast 536 617 31,100  Level FlightAware ADS-B
Thu 10:11:51 PM 43.5350 -68.8444 56° Northeast 538 619 31,100  Level FlightAware ADS-B
Thu 10:12:22 PM 43.5760 -68.7623 55° Northeast 536 617 31,100  Level FlightAware ADS-B
Thu 10:12:55 PM 43.6235 -68.6663 56° Northeast 536 617 31,100  Level FlightAware ADS-B
Thu 10:13:25 PM 43.6658 -68.5785 56° Northeast 537 618 31,100  Level FlightAware ADS-B
Thu 10:14:01 PM 43.7152 -68.4763 56° Northeast 536 617 31,100 -91 Level FlightAware ADS-B
Thu 10:14:31 PM 43.7576 -68.3909 55° Northeast 536 617 31,000  Descending FlightAware ADS-B
Thu 10:15:12 PM 43.8140 -68.2745 56° Northeast 535 616 31,100 67 Climbing FlightAware ADS-B
Thu 10:16:01 PM 43.8809 -68.1350 56° Northeast 536 617 31,100  Level FlightAware ADS-B
Thu 10:16:32 PM 43.9216 -68.0521 56° Northeast 537 618 31,100  Level FlightAware ADS-B
Thu 10:17:03 PM 43.9657 -67.9578 57° Northeast 537 618 31,100  Level FlightAware ADS-B
Thu 10:17:33 PM 44.0070 -67.8716 56° Northeast 537 618 31,100  Level FlightAware ADS-B
Thu 10:18:04 PM 44.0500 -67.7824 56° Northeast 537 618 31,100  Level FlightAware ADS-B
Thu 10:18:44 PM 44.1043 -67.6670 57° Northeast 537 618 31,100  Level FlightAware ADS-B
Thu 10:19:16 PM 44.1479 -67.5746 57° Northeast 538 619 31,100  Level FlightAware ADS-B
Thu 10:19:46 PM 44.1865 -67.4936 56° Northeast 538 619 31,100  Level FlightAware ADS-B
Thu 10:20:20 PM 44.2325 -67.3953 57° Northeast 538 619 31,100  Level FlightAware ADS-B
Thu 10:20:51 PM 44.2747 -67.3052 57° Northeast 539 620 31,100  Level FlightAware ADS-B
Thu 10:21:21 PM 44.3185 -67.2121 57° Northeast 539 620 31,100  Level FlightAware ADS-B
Thu 10:21:52 PM 44.3599 -67.1246 57° Northeast 539 620 31,100  Level FlightAware ADS-B
Thu 10:22:31 PM 44.4107 -67.0139 57° Northeast 538 619 31,100  Level FlightAware ADS-B
Thu 10:23:08 PM 44.4540 -66.9200 57° Northeast 533 613 31,100  Level FlightAware ADS-B
Thu 10:23:12 PM 44.4679 -66.8876 59° Northeast 538 619 31,100  Level FlightAware ADS-B
Thu 10:23:42 PM 44.5054 -66.8018 59° Northeast 537 618 31,100  Level FlightAware ADS-B
Thu 10:24:18 PM 44.5450 -66.7130 58° Northeast 532 612 31,100  Level FlightAware ADS-B
Thu 10:24:50 PM 44.5957 -66.5980 58° Northeast 537 618 31,100  Level FlightAware ADS-B
Thu 10:25:23 PM 44.6386 -66.5002 58° Northeast 538 619 31,100  Level FlightAware ADS-B
Thu 10:25:54 PM 44.6748 -66.4198 58° Northeast 539 620 31,100  Level FlightAware ADS-B
Thu 10:26:25 PM 44.7170 -66.3216 59° Northeast 539 620 31,100  Level FlightAware ADS-B
Thu 10:26:56 PM 44.7583 -66.2290 58° Northeast 538 619 31,100  Level FlightAware ADS-B
Thu 10:27:31 PM 44.8054 -66.1217 58° Northeast 539 620 31,100  Level FlightAware ADS-B
Thu 10:28:01 PM 44.8446 -66.0287 59° Northeast 539 620 31,100  Level FlightAware ADS-B
Thu 10:28:39 PM 44.8936 -65.9178 58° Northeast 539 620 31,100  Level FlightAware ADS-B
Thu 10:29:22 PM 44.9465 -65.7946 59° Northeast 540 621 31,100  Level FlightAware ADS-B
Thu 10:30:01 PM 44.9986 -65.6713 59° Northeast 540 621 31,100  Level FlightAware ADS-B
Thu 10:30:33 PM 45.0339 -65.5899 58° Northeast 540 621 31,100  Level FlightAware ADS-B
Thu 10:31:24 PM 45.1066 -65.4176 59° Northeast 540 621 31,100  Level FlightAware ADS-B
Thu 10:31:54 PM 45.1457 -65.3266 59° Northeast 542 624 31,100  Level FlightAware ADS-B
Thu 10:32:24 PM 45.1836 -65.2382 59° Northeast 543 625 31,100  Level FlightAware ADS-B
Thu 10:33:05 PM 45.2292 -65.1282 60° Northeast 544 626 31,100  Level FlightAware ADS-B
Thu 10:33:39 PM 45.2809 -65.0053 59° Northeast 545 627 31,100  Level FlightAware ADS-B
Thu 10:34:29 PM 45.3200 -64.9130 59° Northeast 543 625 31,100 -111 Level FlightAware ADS-B
Thu 10:34:33 PM 45.3480 -64.8449 60° Northeast 547 629 31,000  Descending FlightAware ADS-B
Thu 10:35:05 PM 45.3600 -64.8190 57° Northeast 543 625 31,100 146 Climbing FlightAware ADS-B
Thu 10:35:14 PM 45.3860 -64.7519 61° Northeast 550 633 31,100  Level FlightAware ADS-B
Thu 10:35:45 PM 45.4420 -64.6179 59° Northeast 551 634 31,100  Level FlightAware ADS-B
Thu 10:36:26 PM 45.4590 -64.5740 61° Northeast 31,100  Level FlightAware ADS-B
Thu 10:36:56 PM 45.5069 -64.4579 59° Northeast 554 638 31,100  Level FlightAware ADS-B
Thu 10:39:12 PM 45.6960 -63.9910 60° Northeast 31,100  Level FlightAware ADS-B
Thu 10:39:59 PM 45.7350 -63.8990 59° Northeast 559 643 31,100  Level FlightAware ADS-B
Thu 10:40:31 PM 45.7720 -63.8050 61° Northeast 559 643 31,100  Level FlightAware ADS-B
Thu 10:41:07 PM 45.8120 -63.7070 60° Northeast 559 643 31,100  Level FlightAware ADS-B
Thu 10:41:43 PM 45.8510 -63.6080 60° Northeast 559 643 31,100  Level FlightAware ADS-B
Thu 10:42:19 PM 45.8910 -63.5100 60° Northeast 559 643 31,100  Level FlightAware ADS-B
Thu 10:42:55 PM 45.9310 -63.4110 60° Northeast 559 643 31,100  Level FlightAware ADS-B
Thu 10:43:29 PM 45.9680 -63.3180 60° Northeast 559 643 31,100  Level FlightAware ADS-B
Thu 10:44:05 PM 46.0080 -63.2190 60° Northeast 559 643 31,100  Level FlightAware ADS-B
Thu 10:44:41 PM 46.0470 -63.1210 60° Northeast 559 643 31,100  Level FlightAware ADS-B
Thu 10:45:11 PM 46.1610 -62.8120 62° Northeast 567 652 31,100  Level FlightAware ADS-B
Thu 10:45:47 PM 46.2080 -62.6930 60° Northeast 568 654 31,100  Level FlightAware ADS-B
Thu 10:46:23 PM 46.2530 -62.5740 61° Northeast 568 654 31,100  Level FlightAware ADS-B
Thu 10:46:59 PM 46.2990 -62.4540 61° Northeast 569 655 31,100  Level FlightAware ADS-B
Thu 10:47:33 PM 46.3430 -62.3410 61° Northeast 569 655 31,100 429 Level FlightAware ADS-B
Thu 10:48:09 PM 46.3890 -62.2170 62° Northeast 571 657 31,600 833 Climbing FlightAware ADS-B
Thu 10:48:45 PM 46.4320 -62.1020 61° Northeast 572 658 32,100 971 Climbing FlightAware ADS-B
Thu 10:49:17 PM 46.4750 -61.9880 61° Northeast 574 661 32,700 882 Climbing FlightAware ADS-B
Thu 10:49:53 PM 46.5200 -61.8660 62° Northeast 575 662 33,100 333 Climbing FlightAware ADS-B
Thu 10:50:29 PM 46.5650 -61.7470 61° Northeast 573 659 33,100  Level FlightAware ADS-B
Thu 10:51:05 PM 46.6110 -61.6220 62° Northeast 571 657 33,100  Level FlightAware ADS-B
Thu 10:51:37 PM 46.6510 -61.5140 62° Northeast 570 656 33,100  Level FlightAware ADS-B
Thu 10:52:11 PM 46.6930 -61.3990 62° Northeast 569 655 33,100  Level FlightAware ADS-B
Thu 10:52:49 PM 46.7400 -61.2710 62° Northeast 569 655 33,100  Level FlightAware ADS-B
Thu 10:53:22 PM 46.7800 -61.1620 62° Northeast 571 657 33,100  Level FlightAware ADS-B
Thu 10:53:59 PM 46.8260 -61.0360 62° Northeast 571 657 33,100  Level FlightAware ADS-B
Thu 10:54:35 PM 46.8690 -60.9130 63° Northeast 573 659 33,100  Level FlightAware ADS-B
Thu 10:55:07 PM 46.9100 -60.8000 62° Northeast 574 661 33,100  Level FlightAware ADS-B
Thu 10:55:43 PM 46.9540 -60.6790 62° Northeast 574 661 33,100  Level FlightAware ADS-B
Thu 10:56:17 PM 46.9950 -60.5620 63° Northeast 572 658 33,100  Level FlightAware ADS-B
Thu 10:56:49 PM 47.0320 -60.4560 63° Northeast 570 656 33,100  Level FlightAware ADS-B
Thu 10:57:27 PM 47.0800 -60.3190 63° Northeast 569 655 33,100  Level FlightAware ADS-B
Thu 10:58:05 PM 47.1260 -60.1880 63° Northeast 570 656 33,100  Level FlightAware ADS-B
Thu 10:58:37 PM 47.1650 -60.0780 62° Northeast 570 656 33,100  Level FlightAware ADS-B
Thu 10:59:13 PM 47.2060 -59.9610 63° Northeast 569 655 33,100  Level FlightAware ADS-B
Thu 10:59:55 PM 47.2530 -59.8270 63° Northeast 569 655 33,100  Level FlightAware ADS-B
Thu 11:00:31 PM 47.2890 -59.7220 63° Northeast 569 655 33,100  Level FlightAware ADS-B
Thu 11:01:07 PM 47.3260 -59.6160 63° Northeast 569 655 33,100  Level FlightAware ADS-B
Thu 11:01:43 PM 47.3620 -59.5100 63° Northeast 569 655 33,100  Level FlightAware ADS-B
Thu 11:02:19 PM 47.3990 -59.4040 63° Northeast 569 655 33,100  Level FlightAware ADS-B
Thu 11:03:11 PM 47.4830 -59.1510 64° Northeast 573 659 33,100 -71 Level FlightAware ADS-B
Thu 11:03:43 PM 47.5230 -59.0280 64° Northeast 585 673 33,000  Descending FlightAware ADS-B
Thu 11:04:23 PM 47.5740 -58.8770 63° Northeast 586 674 33,100 86 Climbing FlightAware ADS-B
Thu 11:04:53 PM 47.6110 -58.7660 64° Northeast 587 676 33,100  Level FlightAware ADS-B
Thu 11:05:28 PM 47.6530 -58.6390 64° Northeast 587 676 33,100  Level FlightAware ADS-B
Thu 11:06:08 PM 47.7010 -58.4950 64° Northeast 583 671 33,100 -86 Level FlightAware ADS-B
Thu 11:06:38 PM 47.7320 -58.3980 65° Northeast 581 669 33,000 -86 Descending FlightAware ADS-B
Thu 11:07:18 PM 47.7770 -58.2580 64° Northeast 580 667 33,000 86 Level FlightAware ADS-B
Thu 11:07:48 PM 47.8130 -58.1500 64° Northeast 581 669 33,100 86 Climbing FlightAware ADS-B
Thu 11:08:28 PM 47.8640 -57.9920 64° Northeast 579 666 33,100  Level FlightAware ADS-B
Thu 11:08:58 PM 47.8980 -57.8840 65° Northeast 580 667 33,100 -86 Level FlightAware ADS-B
Thu 11:09:38 PM 47.9440 -57.7390 65° Northeast 581 669 33,000  Descending FlightAware ADS-B
Thu 11:10:08 PM 47.9780 -57.6310 65° Northeast 576 663 33,100 92 Climbing FlightAware ADS-B
Thu 11:10:43 PM 48.0170 -57.5050 65° Northeast 576 663 33,100 -80 Level FlightAware ADS-B
Thu 11:11:23 PM 48.0610 -57.3640 65° Northeast 579 666 33,000  Descending FlightAware ADS-B
Thu 11:11:55 PM 48.0980 -57.2430 65° Northeast 580 667 33,100 86 Climbing FlightAware ADS-B
Thu 11:12:33 PM 48.1390 -57.1090 65° Northeast 578 665 33,100 -88 Level FlightAware ADS-B
Thu 11:13:03 PM 48.1730 -56.9960 66° East 576 663 33,000 -92 Descending FlightAware ADS-B
Thu 11:13:38 PM 48.2070 -56.8830 66° East 572 658 33,000 85 Level FlightAware ADS-B
Thu 11:14:14 PM 48.2480 -56.7430 66° East 571 657 33,100 86 Climbing FlightAware ADS-B
Thu 11:14:48 PM 48.2850 -56.6200 66° East 570 656 33,100 -87 Level FlightAware ADS-B
Thu 11:15:23 PM 48.3230 -56.4940 66° East 569 655 33,000  Descending FlightAware ADS-B
Thu 11:16:03 PM 48.3660 -56.3460 66° East 568 654 33,100 86 Climbing FlightAware ADS-B
Thu 11:16:33 PM 48.3980 -56.2380 66° East 566 651 33,100  Level FlightAware ADS-B
Thu 11:17:08 PM 48.4350 -56.1120 66° East 564 649 33,100  Level FlightAware ADS-B
Thu 11:17:43 PM 48.4710 -55.9900 66° East 562 647 33,100 -80 Level FlightAware ADS-B
Thu 11:18:23 PM 48.5130 -55.8430 67° East 560 644 33,000  Descending FlightAware ADS-B
Thu 11:18:53 PM 48.5430 -55.7360 67° East 557 641 33,100 92 Climbing FlightAware ADS-B
Thu 11:19:28 PM 48.5790 -55.6160 66° East 553 636 33,100  Level FlightAware ADS-B
Thu 11:20:03 PM 48.6140 -55.4920 67° East 551 634 33,100  Level FlightAware ADS-B
Thu 11:20:38 PM 48.6500 -55.3640 67° East 551 634 33,100  Level FlightAware ADS-B
Thu 11:21:13 PM 48.6830 -55.2480 67° East 552 635 33,100 -86 Level FlightAware ADS-B
Thu 11:21:48 PM 48.7190 -55.1160 67° East 551 634 33,000  Descending FlightAware ADS-B
Thu 11:22:28 PM 48.7580 -54.9780 67° East 551 634 33,100  Climbing FlightAware ADS-B
Thu 11:22:58 PM 48.7880 -54.8710 67° East 552 635 33,000 -92 Descending FlightAware ADS-B
Thu 11:23:33 PM 48.8220 -54.7460 68° East 553 636 33,000 86 Level FlightAware ADS-B
Thu 11:24:08 PM 48.8570 -54.6170 68° East 553 636 33,100 85 Climbing FlightAware ADS-B
Thu 11:24:44 PM 48.8910 -54.4920 67° East 551 634 33,100  Level FlightAware ADS-B
Thu 11:25:18 PM 48.9250 -54.3670 67° East 550 633 33,100  Level FlightAware ADS-B
Thu 11:25:58 PM 48.9640 -54.2240 67° East 549 632 33,100  Level FlightAware ADS-B
Thu 11:26:28 PM 48.9930 -54.1160 68° East 549 632 33,100 646 Level FlightAware ADS-B
Thu 11:27:03 PM 49.0260 -53.9920 68° East 546 628 33,800 857 Climbing FlightAware ADS-B
Thu 11:27:38 PM 49.0590 -53.8710 67° East 543 625 34,100 257 Climbing FlightAware ADS-B
Thu 11:28:13 PM 49.0920 -53.7440 68° East 539 620 34,100  Level FlightAware ADS-B
Thu 11:28:43 PM 49.1190 -53.6420 68° East 537 618 34,100  Level FlightAware ADS-B
Thu 11:29:18 PM 49.1520 -53.5150 68° East 535 616 34,100  Level FlightAware ADS-B
Thu 11:29:53 PM 49.1840 -53.3930 68° East 531 611 34,100  Level FlightAware ADS-B
Thu 11:30:28 PM 49.2140 -53.2750 69° East 530 610 34,100  Level FlightAware ADS-B
Thu 11:31:03 PM 49.2460 -53.1530 68° East 528 608 34,100  Level FlightAware ADS-B
Thu 11:31:43 PM 49.2820 -53.0110 69° East 530 610 34,100  Level FlightAware ADS-B
Thu 11:32:13 PM 49.3070 -52.9130 69° East 530 610 34,100  Level FlightAware ADS-B
Thu 11:32:48 PM 49.3370 -52.7970 68° East 530 610 34,100 -80 Level FlightAware ADS-B
Thu 11:33:28 PM 49.3750 -52.6440 69° East 530 610 34,000  Descending FlightAware ADS-B
Thu 11:33:58 PM 49.4010 -52.5380 69° East 530 610 34,100 92 Climbing FlightAware ADS-B
Thu 11:34:33 PM 49.4320 -52.4160 69° East 529 609 34,100  Level FlightAware ADS-B
Thu 11:35:08 PM 49.4610 -52.3000 69° East 529 609 34,100  Level FlightAware ADS-B
Thu 11:35:48 PM 49.4970 -52.1560 69° East 528 608 34,100  Level FlightAware ADS-B
Thu 11:36:18 PM 49.5210 -52.0540 70° East 528 608 34,100  Level FlightAware ADS-B
Thu 11:36:53 PM 49.5510 -51.9310 69° East 527 606 34,100  Level FlightAware ADS-B
Thu 11:37:33 PM 49.5840 -51.7950 69° East 525 604 34,100  Level FlightAware ADS-B
Thu 11:38:28 PM 49.6300 -51.6060 69° East 522 601 34,100  Level FlightAware ADS-B
Thu 11:39:05 PM 49.6570 -51.4960 69° East 522 601 34,100  Level FlightAware ADS-B
Thu 11:39:41 PM 49.6840 -51.3900 68° East 522 601 34,100  Level FlightAware ADS-B
Thu 11:40:17 PM 49.7100 -51.2830 69° East 522 601 34,100  Level FlightAware ADS-B
Thu 11:40:53 PM 49.7370 -51.1760 69° East 522 601 34,100  Level FlightAware ADS-B
Thu 11:41:29 PM 49.7630 -51.0700 69° East 522 601 34,100  Level FlightAware ADS-B
Thu 11:42:05 PM 49.7900 -50.9630 69° East 522 601 34,100  Level FlightAware ADS-B
Thu 11:42:41 PM 49.8160 -50.8560 69° East 522 601 34,100  Level FlightAware ADS-B
Thu 11:43:17 PM 49.8420 -50.7490 69° East 522 601 34,100  Level FlightAware ADS-B
Thu 11:43:53 PM 49.8690 -50.6420 69° East 522 601 34,100  Level FlightAware ADS-B
Thu 11:44:39 PM 49.9030 -50.5050 69° East 522 601 34,100  Level FlightAware ADS-B
Thu 11:45:15 PM 49.9290 -50.3980 69° East 522 601 34,100  Level FlightAware ADS-B
Thu 11:45:51 PM 49.9560 -50.2910 69° East 522 601 34,100  Level FlightAware ADS-B
Thu 11:46:27 PM 49.9820 -50.1830 69° East 522 601 34,100  Level FlightAware ADS-B
Thu 11:47:03 PM 50.0090 -50.0760 69° East 522 601 34,100  Level FlightAware ADS-B
Thu 11:47:39 PM 50.0350 -49.9690 69° East 522 601 34,100  Level FlightAware ADS-B
Thu 11:48:15 PM 50.0620 -49.8610 69° East 522 601 34,100 -74 Level FlightAware ADS-B
Thu 11:49:00 PM 50.0667 -49.3000 69° East 520 598 34,000 -57 Descending Gander Center
Thu 11:50:00 PM 50.1167 -49.1000 69° East 520 598 34,000 50 Level Gander Center
Thu 11:51:00 PM 50.1333 -48.8500 84° East 500 575 34,100 Climbing Gander Center
Thu 11:53:00 PM 50.1768 -48.5337 78° East  Level FlightAware Approximate
Fri 12:00:00 AM 50.3789 -46.9626 78° East  Level FlightAware Approximate
Fri 12:01:00 AM 50.4061 -46.7370 79° East  Level FlightAware Approximate
Fri 12:02:00 AM 50.4328 -46.5113 79° East  Level FlightAware Approximate
Fri 12:03:00 AM 50.4590 -46.2853 80° East  Level FlightAware Approximate
Fri 12:04:00 AM 50.4849 -46.0590 80° East  Level FlightAware Approximate
Fri 12:05:00 AM 50.5102 -45.8325 80° East  Level FlightAware Approximate
Fri 12:06:00 AM 50.5352 -45.6057 80° East  Level FlightAware Approximate
Fri 12:07:00 AM 50.5597 -45.3787 80° East  Level FlightAware Approximate
Fri 12:08:00 AM 50.5838 -45.1515 80° East  Level FlightAware Approximate
Fri 12:09:00 AM 50.6074 -44.9240 81° East  Level FlightAware Approximate
Fri 12:10:00 AM 50.6306 -44.6962 81° East  Level FlightAware Approximate
Fri 12:11:00 AM 50.6535 -44.4683 81° East  Level FlightAware Approximate
Fri 12:12:00 AM 50.6759 -44.2402 81° East  Level FlightAware Approximate
Fri 12:13:00 AM 50.6979 -44.0119 81° East  Level FlightAware Approximate
Fri 12:14:00 AM 50.7195 -43.7834 81° East  Level FlightAware Approximate
Fri 12:15:00 AM 50.7403 -43.5546 82° East  Level FlightAware Approximate
Fri 12:16:00 AM 50.7604 -43.3256 82° East  Level FlightAware Approximate
Fri 12:17:00 AM 50.7801 -43.0963 82° East  Level FlightAware Approximate
Fri 12:18:00 AM 50.7993 -42.8669 82° East  Level FlightAware Approximate
Fri 12:19:00 AM 50.8180 -42.6372 83° East  Level FlightAware Approximate
Fri 12:20:00 AM 50.8363 -42.4074 83° East  Level FlightAware Approximate
Fri 12:21:00 AM 50.8541 -42.1774 83° East  Level FlightAware Approximate
Fri 12:22:00 AM 50.8715 -41.9473 83° East  Level FlightAware Approximate
Fri 12:23:00 AM 50.8884 -41.7169 83° East  Level FlightAware Approximate
Fri 12:24:00 AM 50.9049 -41.4864 83° East  Level FlightAware Approximate
Fri 12:25:00 AM 50.9209 -41.2558 84° East  Level FlightAware Approximate
Fri 12:26:00 AM 50.9365 -41.0250 84° East  Level FlightAware Approximate
Fri 12:27:00 AM 50.9516 -40.7940 84° East  Level FlightAware Approximate
Fri 12:28:00 AM 50.9663 -40.5629 84° East  Level FlightAware Approximate
Fri 12:29:00 AM 50.9804 -40.3316 84° East  Level FlightAware Approximate
Fri 12:30:00 AM 50.9942 -40.1002 85° East  Level FlightAware Approximate
Fri 12:31:00 AM 51.0186 -39.8715 77° East  Level FlightAware Approximate
Fri 12:32:00 AM 51.0511 -39.6446 77° East  Level FlightAware Approximate
Fri 12:33:00 AM 51.0832 -39.4175 77° East  Level FlightAware Approximate
Fri 12:34:00 AM 51.1145 -39.1920 77° East  Level FlightAware Approximate
Fri 12:35:00 AM 51.1453 -38.9669 78° East  Level FlightAware Approximate
Fri 12:36:00 AM 51.1757 -38.7416 78° East  Level FlightAware Approximate
Fri 12:37:00 AM 51.2056 -38.5159 78° East  Level FlightAware Approximate
Fri 12:38:00 AM 51.2351 -38.2900 78° East  Level FlightAware Approximate
Fri 12:39:00 AM 51.2642 -38.0638 78° East  Level FlightAware Approximate
Fri 12:40:00 AM 51.2928 -37.8372 78° East  Level FlightAware Approximate
Fri 12:41:00 AM 51.3210 -37.6105 79° East  Level FlightAware Approximate
Fri 12:42:00 AM 51.3488 -37.3834 79° East  Level FlightAware Approximate
Fri 12:43:00 AM 51.3761 -37.1561 79° East  Level FlightAware Approximate
Fri 12:44:00 AM 51.4030 -36.9285 79° East  Level FlightAware Approximate
Fri 12:45:00 AM 51.4294 -36.7006 79° East  Level FlightAware Approximate
Fri 12:46:00 AM 51.4554 -36.4725 80° East  Level FlightAware Approximate
Fri 12:47:00 AM 51.4809 -36.2441 80° East  Level FlightAware Approximate
Fri 12:48:00 AM 51.5060 -36.0154 80° East  Level FlightAware Approximate
Fri 12:49:00 AM 51.5307 -35.7865 80° East  Level FlightAware Approximate
Fri 12:50:00 AM 51.5549 -35.5574 80° East  Level FlightAware Approximate
Fri 12:51:00 AM 51.5787 -35.3280 80° East  Level FlightAware Approximate
Fri 12:52:00 AM 51.6020 -35.0984 81° East  Level FlightAware Approximate
Fri 12:53:00 AM 51.6249 -34.8685 81° East  Level FlightAware Approximate
Fri 12:54:00 AM 51.6473 -34.6385 81° East  Level FlightAware Approximate
Fri 12:55:00 AM 51.6693 -34.4081 81° East  Level FlightAware Approximate
Fri 12:56:00 AM 51.6908 -34.1776 81° East  Level FlightAware Approximate
Fri 12:57:00 AM 51.7118 -33.9469 82° East  Level FlightAware Approximate
Fri 12:58:00 AM 51.7325 -33.7159 82° East  Level FlightAware Approximate
Fri 12:59:00 AM 51.7526 -33.4847 82° East  Level FlightAware Approximate
Fri 01:00:00 AM 51.7723 -33.2534 82° East  Level FlightAware Approximate
Fri 01:01:00 AM 51.7916 -33.0218 82° East  Level FlightAware Approximate
Fri 01:02:00 AM 51.8104 -32.7900 82° East  Level FlightAware Approximate
Fri 01:03:00 AM 51.8288 -32.5581 83° East  Level FlightAware Approximate
Fri 01:04:00 AM 51.8466 -32.3259 83° East  Level FlightAware Approximate
Fri 01:05:00 AM 51.8641 -32.0936 83° East  Level FlightAware Approximate
Fri 01:06:00 AM 51.8810 -31.8611 83° East  Level FlightAware Approximate
Fri 01:07:00 AM 51.8975 -31.6284 83° East  Level FlightAware Approximate
Fri 01:08:00 AM 51.9136 -31.3955 84° East  Level FlightAware Approximate
Fri 01:09:00 AM 51.9292 -31.1625 84° East  Level FlightAware Approximate
Fri 01:10:00 AM 51.9443 -30.9294 84° East  Level FlightAware Approximate
Fri 01:11:00 AM 51.9590 -30.6960 84° East  Level FlightAware Approximate
Fri 01:12:00 AM 51.9732 -30.4625 84° East  Level FlightAware Approximate
Fri 01:13:00 AM 51.9870 -30.2289 84° East  Level FlightAware Approximate
Fri 01:14:00 AM 52.0007 -29.9953 77° East  Level FlightAware Approximate
Fri 01:15:00 AM 52.0332 -29.7664 77° East  Level FlightAware Approximate
Fri 01:16:00 AM 52.0653 -29.5372 77° East  Level FlightAware Approximate
Fri 01:17:00 AM 52.0970 -29.3077 77° East  Level FlightAware Approximate
Fri 01:18:00 AM 52.1283 -29.0775 77° East  Level FlightAware Approximate
Fri 01:19:00 AM 52.1591 -28.8470 78° East  Level FlightAware Approximate
Fri 01:20:00 AM 52.1895 -28.6161 78° East  Level FlightAware Approximate
Fri 01:21:00 AM 52.2193 -28.3857 78° East  Level FlightAware Approximate
Fri 01:22:00 AM 52.2487 -28.1550 78° East  Level FlightAware Approximate
Fri 01:23:00 AM 52.2776 -27.9240 78° East  Level FlightAware Approximate
Fri 01:24:00 AM 52.3061 -27.6928 79° East  Level FlightAware Approximate
Fri 01:25:00 AM 52.3341 -27.4612 79° East  Level FlightAware Approximate
Fri 01:26:00 AM 52.3617 -27.2293 79° East  Level FlightAware Approximate
Fri 01:27:00 AM 52.3888 -26.9971 79° East  Level FlightAware Approximate
Fri 01:28:00 AM 52.4155 -26.7647 79° East  Level FlightAware Approximate
Fri 01:29:00 AM 52.4417 -26.5319 79° East  Level FlightAware Approximate
Fri 01:30:00 AM 52.4674 -26.2989 80° East  Level FlightAware Approximate
Fri 01:31:00 AM 52.4927 -26.0657 80° East  Level FlightAware Approximate
Fri 01:32:00 AM 52.5175 -25.8321 80° East  Level FlightAware Approximate
Fri 01:33:00 AM 52.5419 -25.5983 80° East  Level FlightAware Approximate
Fri 01:34:00 AM 52.5658 -25.3643 80° East  Level FlightAware Approximate
Fri 01:35:00 AM 52.5892 -25.1300 81° East  Level FlightAware Approximate
Fri 01:36:00 AM 52.6122 -24.8954 81° East  Level FlightAware Approximate
Fri 01:37:00 AM 52.6347 -24.6606 81° East  Level FlightAware Approximate
Fri 01:38:00 AM 52.6568 -24.4256 81° East  Level FlightAware Approximate
Fri 01:39:00 AM 52.6784 -24.1903 81° East  Level FlightAware Approximate
Fri 01:40:00 AM 52.6995 -23.9548 81° East  Level FlightAware Approximate
Fri 01:41:00 AM 52.7201 -23.7190 82° East  Level FlightAware Approximate
Fri 01:42:00 AM 52.7403 -23.4831 82° East  Level FlightAware Approximate
Fri 01:43:00 AM 52.7601 -23.2469 82° East  Level FlightAware Approximate
Fri 01:44:00 AM 52.7793 -23.0105 82° East  Level FlightAware Approximate
Fri 01:45:00 AM 52.7981 -22.7740 82° East  Level FlightAware Approximate
Fri 01:46:00 AM 52.8164 -22.5372 83° East  Level FlightAware Approximate
Fri 01:47:00 AM 52.8358 -22.3006 82° East  Level FlightAware Approximate
Fri 01:48:00 AM 52.8549 -22.0637 82° East  Level FlightAware Approximate
Fri 01:49:00 AM 52.8734 -21.8267 83° East  Level FlightAware Approximate
Fri 01:50:00 AM 52.8915 -21.5894 83° East  Level FlightAware Approximate
Fri 01:51:00 AM 52.9091 -21.3520 83° East  Level FlightAware Approximate
Fri 01:52:00 AM 52.9262 -21.1143 83° East  Level FlightAware Approximate
Fri 01:53:00 AM 52.9428 -20.8765 83° East  Level FlightAware Approximate
Fri 01:54:00 AM 52.9590 -20.6385 83° East  Level FlightAware Approximate
Fri 01:55:00 AM 52.9747 -20.4004 84° East  Level FlightAware Approximate
Fri 01:56:00 AM 52.9899 -20.1620 84° East  Level FlightAware Approximate
Fri 01:57:00 AM 52.9998 -19.9231 90° East  Level FlightAware Approximate
Fri 01:58:00 AM 52.9989 -19.6833 90° East  Level FlightAware Approximate
Fri 01:59:00 AM 52.9974 -19.4436 90° East  Level FlightAware Approximate
Fri 02:00:00 AM 52.9955 -19.2030 91° East  Level FlightAware Approximate
Fri 02:01:00 AM 52.9931 -18.9629 91° East  Level FlightAware Approximate
Fri 02:02:00 AM 52.9902 -18.7228 91° East  Level FlightAware Approximate
Fri 02:03:00 AM 52.9868 -18.4827 91° East  Level FlightAware Approximate
Fri 02:04:00 AM 52.9830 -18.2427 91° East  Level FlightAware Approximate
Fri 02:05:00 AM 52.9786 -18.0027 92° East  Level FlightAware Approximate
Fri 02:06:00 AM 52.9738 -17.7628 92° East  Level FlightAware Approximate
Fri 02:07:00 AM 52.9685 -17.5229 92° East  Level FlightAware Approximate
Fri 02:08:00 AM 52.9627 -17.2831 92° East  Level FlightAware Approximate
Fri 02:09:00 AM 52.9565 -17.0434 92° East  Level FlightAware Approximate
Fri 02:10:00 AM 52.9497 -16.8037 93° East  Level FlightAware Approximate
Fri 02:11:00 AM 52.9425 -16.5641 93° East  Level FlightAware Approximate
Fri 02:12:00 AM 52.9348 -16.3246 93° East  Level FlightAware Approximate
Fri 02:13:00 AM 52.9266 -16.0852 93° East  Level FlightAware Approximate
Fri 02:14:00 AM 52.9179 -15.8458 93° East  Level FlightAware Approximate
Fri 02:15:00 AM 52.9087 -15.6066 94° East  Level FlightAware Approximate
Fri 02:16:00 AM 52.8991 -15.3675 94° East  Level FlightAware Approximate
Fri 02:17:00 AM 52.8890 -15.1285 94° East  Level FlightAware Approximate
Fri 02:18:00 AM 52.8788 -14.8895 94° East  Level FlightAware Approximate
Fri 02:19:00 AM 52.8686 -14.6506 94° East  Level FlightAware Approximate
Fri 02:20:00 AM 52.8579 -14.4114 94° East  Level FlightAware Approximate
Fri 02:21:00 AM 52.8468 -14.1723 94° East  Level FlightAware Approximate
Fri 02:22:00 AM 52.8352 -13.9334 95° East  Level FlightAware Approximate
Fri 02:23:00 AM 52.8230 -13.6946 95° East  Level FlightAware Approximate
Fri 02:24:00 AM 52.8105 -13.4559 95° East  Level FlightAware Approximate
Fri 02:25:00 AM 52.7974 -13.2173 95° East  Level FlightAware Approximate
Fri 02:26:00 AM 52.7838 -12.9789 95° East  Level FlightAware Approximate
Fri 02:26:51 AM 52.8620 -13.0610 95° East 508 585 35,100  Level FlightAware ADS-B
Fri 02:27:00 AM 52.7698 -12.7407 95° East  Level FlightAware Approximate
Fri 02:27:21 AM 52.8530 -12.9410 97° East 508 585 35,100  Level FlightAware ADS-B
Fri 02:28:03 AM 52.8430 -12.7900 96° East 508 585 35,100  Level FlightAware ADS-B
Fri 02:28:36 AM 52.8310 -12.6480 98° East 508 585 35,100  Level FlightAware ADS-B
Fri 02:29:11 AM 52.8210 -12.5170 97° East 508 585 35,100  Level FlightAware ADS-B
Fri 02:29:46 AM 52.8110 -12.3830 97° East 506 582 35,100  Level FlightAware ADS-B
Fri 02:30:17 AM 52.8010 -12.2640 98° East 505 581 35,100  Level FlightAware ADS-B
Fri 02:30:56 AM 52.7890 -12.1150 98° East 504 580 35,100  Level FlightAware ADS-B
Fri 02:31:26 AM 52.7800 -11.9970 97° East 504 580 35,100  Level FlightAware ADS-B
Fri 02:32:06 AM 52.7670 -11.8450 98° East 505 581 35,100  Level FlightAware ADS-B
Fri 02:32:42 AM 52.7560 -11.7110 98° East 505 581 35,100  Level FlightAware ADS-B
Fri 02:33:16 AM 52.7450 -11.5780 98° East 504 580 35,100  Level FlightAware ADS-B
Fri 02:33:52 AM 52.7330 -11.4450 98° East 504 580 35,100  Level FlightAware ADS-B
Fri 02:34:33 AM 52.7210 -11.3040 98° East 504 580 35,100  Level FlightAware ADS-B
Fri 02:35:10 AM 52.7070 -11.1480 98° East 504 580 35,100  Level FlightAware ADS-B
Fri 02:35:40 AM 52.6970 -11.0300 98° East 504 580 35,100  Level FlightAware ADS-B
Fri 02:36:15 AM 52.6850 -10.9010 99° East 504 580 35,100  Level FlightAware ADS-B
Fri 02:36:50 AM 52.6720 -10.7640 99° East 503 579 35,100  Level FlightAware ADS-B
Fri 02:37:25 AM 52.6600 -10.6350 99° East 502 578 35,100  Level FlightAware ADS-B
Fri 02:38:00 AM 52.6480 -10.4990 98° East 503 579 35,100  Level FlightAware ADS-B
Fri 02:38:35 AM 52.6350 -10.3700 99° East 503 579 35,100  Level FlightAware ADS-B
Fri 02:39:11 AM 52.6220 -10.2340 99° East 505 581 35,100  Level FlightAware ADS-B
Fri 02:39:45 AM 52.6090 -10.1050 99° East 505 581 35,100  Level FlightAware ADS-B
Fri 02:40:20 AM 52.5960 -9.9690 99° East 505 581 35,100  Level FlightAware ADS-B
Fri 02:40:56 AM 52.5830 -9.8360 99° East 505 581 35,100  Level FlightAware ADS-B
Fri 02:41:36 AM 52.5670 -9.6850 100° East 505 581 35,100  Level FlightAware ADS-B
Fri 02:42:16 AM 52.5520 -9.5340 99° East 506 582 35,100  Level FlightAware ADS-B
Fri 02:42:46 AM 52.5400 -9.4170 100° East 504 580 35,100  Level FlightAware ADS-B
Fri 02:43:03 AM 52.5322 -9.3453 100° East 504 580 35,100  Level FlightAware ADS-B
Fri 02:43:40 AM 52.5178 -9.2100 100° East 504 580 35,100  Level FlightAware ADS-B
Fri 02:44:36 AM 52.4960 -9.0070 100° East 501 577 35,100  Level FlightAware ADS-B
Fri 02:45:11 AM 52.4810 -8.8730 100° East 500 575 35,100  Level FlightAware ADS-B
Fri 02:45:49 AM 52.4658 -8.7308 100° East 501 577 35,100  Level FlightAware ADS-B
Fri 02:46:21 AM 52.4530 -8.6160 100° East 497 572 35,100  Level FlightAware ADS-B
Fri 02:46:23 AM 52.4515 -8.6043 102° East 499 574 35,100  Level FlightAware ADS-B
Fri 02:46:54 AM 52.4413 -8.5152 101° East 498 573 35,100  Level FlightAware ADS-B
Fri 02:47:32 AM 52.4222 -8.3447 100° East 497 572 35,100  Level FlightAware ADS-B
Fri 02:48:04 AM 52.4100 -8.2410 101° East 496 571 35,100  Level FlightAware ADS-B
Fri 02:48:29 AM 52.3987 -8.1414 101° East 498 573 35,100  Level FlightAware ADS-B
Fri 02:49:09 AM 52.3806 -7.9865 101° East 497 572 35,100  Level FlightAware ADS-B
Fri 02:49:42 AM 52.3665 -7.8650 101° East 497 572 35,100  Level FlightAware ADS-B
Fri 02:50:14 AM 52.3526 -7.7509 101° East 497 572 35,100  Level FlightAware ADS-B
Fri 02:50:44 AM 52.3396 -7.6405 101° East 497 572 35,100  Level FlightAware ADS-B
Fri 02:51:21 AM 52.3237 -7.5116 101° East 498 573 35,100  Level FlightAware ADS-B
Fri 02:51:57 AM 52.3063 -7.3683 101° East 497 572 35,100  Level FlightAware ADS-B
Fri 02:52:35 AM 52.2897 -7.2325 101° East 497 572 35,100  Level FlightAware ADS-B (EIDW / DUB)
Fri 02:52:45 AM 52.3005 -7.3207 281° West 497 572 35,100  Level FlightAware ADS-B
Fri 02:53:15 AM 52.2719 -7.0892 101° East 497 572 35,100  Level FlightAware ADS-B (EIDW / DUB)
Fri 02:53:52 AM 52.2541 -6.9501 102° East 497 572 35,100  Level FlightAware ADS-B (EIDW / DUB)
Fri 02:54:22 AM 52.2397 -6.8367 102° East 496 571 35,100 -81 Level FlightAware ADS-B (EIDW / DUB)
Fri 02:55:06 AM 52.2201 -6.6869 102° East 496 571 35,000  Descending FlightAware ADS-B (EIDW / DUB)
Fri 02:55:37 AM 52.2271 -6.7417 282° West 496 571 35,100 88 Climbing FlightAware ADS-B
Fri 02:56:14 AM 52.1876 -6.4353 102° East 496 571 35,100  Level FlightAware ADS-B (EGCW)
Fri 02:56:46 AM 52.1722 -6.3186 102° East 496 571 35,100  Level FlightAware ADS-B (EGCW)
Fri 02:57:28 AM 52.1516 -6.1615 102° East 497 572 35,100  Level FlightAware ADS-B (EGCW)
Fri 02:58:04 AM 52.1373 -6.0291 100° East 498 573 35,100  Level FlightAware ADS-B (EGCW)
Fri 02:58:38 AM 52.1235 -5.9006 100° East 497 572 35,100 -85 Level FlightAware ADS-B
Fri 02:59:15 AM 52.1086 -5.7685 100° East 496 571 35,000  Descending FlightAware ADS-B (EGCW)
Fri 02:59:52 AM 52.0929 -5.6296 100° East 496 571 35,100 85 Climbing FlightAware ADS-B (EGCW)
Fri 03:00:26 AM 52.0916 -5.6187 101° East 496 571 35,100 -92 Level FlightAware ADS-B
Fri 03:00:57 AM 52.0650 -5.3905 101° East 498 573 35,000  Descending FlightAware UK
Fri 03:01:13 AM 52.0581 -5.3340 101° East 494 568 35,100 109 Climbing FlightAware ADS-B (EGCW)
Fri 03:01:52 AM 52.0410 -5.1920 101° East 494 568 35,100  Level FlightAware ADS-B
Fri 03:01:58 AM 52.0386 -5.1739 102° East 494 568 35,100  Level FlightAware ADS-B
Fri 03:02:28 AM 52.0250 -5.0610 101° East 493 567 35,100  Level FlightAware ADS-B
Fri 03:03:01 AM 52.0110 -4.9450 101° East 493 567 35,100  Level FlightAware ADS-B
Fri 03:03:18 AM 52.0031 -4.8802 101° East 493 567 35,100  Level FlightAware ADS-B
Fri 03:03:48 AM 51.9896 -4.7717 101° East 493 567 35,100  Level FlightAware ADS-B
Fri 03:04:27 AM 51.9723 -4.6307 101° East 493 567 35,100  Level FlightAware ADS-B (EGCW)
Fri 03:05:01 AM 51.9573 -4.5117 102° East 492 566 35,100  Level FlightAware ADS-B
Fri 03:05:31 AM 51.9430 -4.3999 102° East 493 567 35,100  Level FlightAware ADS-B
Fri 03:06:03 AM 51.9292 -4.2915 102° East 493 567 35,100  Level FlightAware ADS-B (EGDX / DGX)
Fri 03:06:34 AM 51.9142 -4.1759 102° East 494 568 35,100  Level FlightAware ADS-B
Fri 03:07:05 AM 51.8993 -4.0604 102° East 494 568 35,100  Level FlightAware ADS-B
Fri 03:07:21 AM 51.8919 -4.0023 102° East 495 570 35,100  Level FlightAware ADS-B
Fri 03:07:36 AM 51.8848 -3.9482 102° East 496 571 35,100  Level FlightAware ADS-B
Fri 03:07:51 AM 51.8776 -3.8939 102° East 496 571 35,100  Level FlightAware ADS-B
Fri 03:08:12 AM 51.8687 -3.8287 102° East 497 572 35,100  Level FlightAware ADS-B (EGDM)
Fri 03:08:28 AM 51.8600 -3.7632 102° East 496 571 35,100  Level FlightAware ADS-B
Fri 03:08:33 AM 51.8585 -3.7526 103° East 498 573 35,100  Level FlightAware ADS-B (EGDM)
Fri 03:08:44 AM 51.8523 -3.7052 102° East 498 573 35,100  Level FlightAware ADS-B (EGDM)
Fri 03:09:00 AM 51.8442 -3.6435 102° East 498 573 35,100  Level FlightAware ADS-B
Fri 03:09:14 AM 51.8379 -3.5963 102° East 499 574 35,100  Level FlightAware ADS-B (EGCW)
Fri 03:09:37 AM 51.8260 -3.5087 102° East 499 574 35,100  Level FlightAware ADS-B
Fri 03:09:38 AM 51.8416 -3.6251 282° West 499 574 35,100  Level FlightAware ADS-B
Fri 03:10:02 AM 51.8158 -3.4325 102° East 500 575 35,100  Level FlightAware ADS-B (EGDX / DGX)
Fri 03:10:09 AM 51.8107 -3.3961 103° East 499 574 35,100  Level FlightAware ADS-B
Fri 03:10:10 AM 51.8099 -3.3888 100° East 499 574 35,100  Level FlightAware ADS-B
Fri 03:10:25 AM 51.8158 -3.4325 282° West 499 574 35,100  Level FlightAware ADS-B (EGDX / DGX)
Fri 03:10:47 AM 51.7914 -3.2544 102° East 500 575 35,100  Level FlightAware ADS-B
Fri 03:10:52 AM 51.8011 -3.3272 282° West 499 574 35,100  Level FlightAware ADS-B (EGDX / DGX)
Fri 03:11:04 AM 51.7827 -3.1927 102° East 497 572 35,100  Level FlightAware ADS-B (LERL / CQM)
Fri 03:11:13 AM 51.7782 -3.1602 102° East 497 572 35,100  Level FlightAware ADS-B (LERL / CQM)
Fri 03:11:20 AM 51.7748 -3.1348 102° East 499 574 35,100  Level FlightAware ADS-B
Fri 03:11:43 AM 51.7634 -3.0513 102° East 499 574 35,100  Level FlightAware ADS-B (EGDM)
Fri 03:11:51 AM 51.7594 -3.0259 104° East 499 574 35,100  Level FlightAware ADS-B
Fri 03:12:05 AM 51.7546 -2.9897 102° East 498 573 35,100  Level FlightAware ADS-B (EGDX / DGX)
Fri 03:12:21 AM 51.7440 -2.9137 103° East 498 573 35,100  Level FlightAware ADS-B
Fri 03:12:35 AM 51.7369 -2.8669 104° East 499 574 35,100 -182 Level FlightAware ADS-B
Fri 03:12:54 AM 51.7272 -2.7981 103° East 499 574 35,000  Descending FlightAware ADS-B
Fri 03:13:09 AM 51.7194 -2.7437 103° East 499 574 35,100  Climbing FlightAware ADS-B
Fri 03:13:25 AM 51.7108 -2.6825 103° East 499 574 35,000  Descending FlightAware ADS-B
Fri 03:13:41 AM 51.7026 -2.6246 103° East 500 575 35,100 176 Climbing FlightAware ADS-B (EGDM)
Fri 03:13:59 AM 51.6934 -2.5593 103° East 500 575 35,100  Level FlightAware ADS-B
Fri 03:14:13 AM 51.6859 -2.5087 103° East 500 575 35,100  Level FlightAware ADS-B (LERL / CQM)
Fri 03:14:30 AM 51.6771 -2.4470 103° East 500 575 35,100  Level FlightAware ADS-B
Fri 03:14:45 AM 51.6693 -2.3929 103° East 500 575 35,100  Level FlightAware ADS-B (EGDM)
Fri 03:15:03 AM 51.6600 -2.3275 103° East 501 577 35,100  Level FlightAware ADS-B
Fri 03:15:23 AM 51.6535 -2.2842 103° East 500 575 35,100 -194 Level FlightAware ADS-B (EGDX / DGX)
Fri 03:15:34 AM 51.6444 -2.2189 103° East 501 577 35,000 -375 Descending FlightAware ADS-B (EGDX / DGX)
Fri 03:15:39 AM 51.6419 -2.1967 100° East 503 579 35,000 182 Level FlightAware ADS-B
Fri 03:16:07 AM 51.6320 -2.0930 99° East 504 580 35,100 182 Climbing FlightAware ADS-B (EGDM)
Fri 03:16:12 AM 51.6307 -2.0784 98° East 504 580 35,100  Level FlightAware ADS-B
Fri 03:16:38 AM 51.6218 -1.9782 98° East 505 581 35,100  Level FlightAware ADS-B (EGDM)
Fri 03:16:42 AM 51.6203 -1.9635 99° East 504 580 35,100  Level FlightAware ADS-B
Fri 03:17:09 AM 51.6108 -1.8635 99° East 504 580 35,100  Level FlightAware ADS-B (EGDM)
Fri 03:17:14 AM 51.6088 -1.8453 100° East 504 580 35,100  Level FlightAware ADS-B
Fri 03:17:44 AM 51.5984 -1.7418 99° East 503 579 35,100  Level FlightAware ADS-B (EGDM)
Fri 03:17:45 AM 51.5972 -1.7307 100° East 503 579 35,100  Level FlightAware ADS-B
Fri 03:18:14 AM 51.5867 -1.6280 99° East 503 579 35,100  Level FlightAware ADS-B (EGDM)
Fri 03:18:16 AM 51.5855 -1.6166 100° East 503 579 35,100  Level FlightAware ADS-B
Fri 03:18:25 AM 51.5830 -1.5909 99° East 503 579 35,100  Level FlightAware ADS-B
Fri 03:18:46 AM 51.5817 -1.5763 98° East 503 579 35,100  Level FlightAware ADS-B (EGDX / DGX)
Fri 03:18:50 AM 51.5738 -1.4950 99° East 503 579 35,100  Level FlightAware ADS-B
Fri 03:19:20 AM 51.5631 -1.3848 99° East 502 578 35,100  Level FlightAware ADS-B
Fri 03:19:51 AM 51.5519 -1.2708 99° East 501 577 35,100  Level FlightAware ADS-B
Fri 03:19:53 AM 51.5527 -1.2784 279° West 500 575 35,100  Level FlightAware ADS-B (LERL / CQM)
Fri 03:20:21 AM 51.5406 -1.1572 99° East 502 578 35,100  Level FlightAware ADS-B
Fri 03:20:23 AM 51.5400 -1.1498 97° East 502 578 35,100  Level FlightAware ADS-B (EGDM)
Fri 03:20:52 AM 51.5290 -1.0429 99° East 502 578 35,100  Level FlightAware ADS-B
Fri 03:20:53 AM 51.5288 -1.0392 96° East 502 578 35,100  Level FlightAware ADS-B (EGDM)
Fri 03:21:23 AM 51.5258 -1.0101 99° East 504 580 35,100  Level FlightAware ADS-B
Fri 03:21:24 AM 51.5170 -0.9256 99° East 504 580 35,100  Level FlightAware ADS-B
Fri 03:21:55 AM 51.5054 -0.8113 99° East 505 581 35,100  Level FlightAware ADS-B
Fri 03:22:25 AM 51.4941 -0.7005 99° East 505 581 35,100  Level FlightAware ADS-B (EGDM)
Fri 03:22:27 AM 51.4933 -0.6931 99° East 505 581 35,100  Level FlightAware ADS-B
Fri 03:22:57 AM 51.4817 -0.5827 100° East 504 580 35,100 -194 Level FlightAware ADS-B (EGDM)
Fri 03:22:58 AM 51.4813 -0.5788 100° East 504 580 35,000  Descending FlightAware ADS-B
Fri 03:23:07 AM 51.4941 -0.7005 280° West 505 581 35,100 194 Climbing FlightAware ADS-B
Fri 03:23:29 AM 51.4694 -0.4685 100° East 505 581 35,100  Level FlightAware ADS-B
Fri 03:23:37 AM 51.4678 -0.4536 100° East 505 581 35,100  Level FlightAware ADS-B
Fri 03:23:59 AM 51.4575 -0.3545 99° East 504 580 35,100  Level FlightAware ADS-B
Fri 03:24:10 AM 51.4530 -0.3140 100° East 505 581 35,100  Level FlightAware ADS-B (EGDM)
Fri 03:24:30 AM 51.4454 -0.2440 100° East 505 581 35,100  Level FlightAware ADS-B
Fri 03:24:41 AM 51.4417 -0.2071 99° East 506 582 35,100  Level FlightAware ADS-B
Fri 03:25:00 AM 51.4336 -0.1298 99° East 506 582 35,100  Level FlightAware ADS-B
Fri 03:25:11 AM 51.4294 -0.0928 100° East 507 583 35,100  Level FlightAware ADS-B
Fri 03:25:30 AM 51.4219 -0.0186 99° East 509 586 35,100 -200 Level FlightAware ADS-B
Fri 03:25:41 AM 51.4176 0.0222 100° East 509 586 35,000  Descending FlightAware ADS-B
Fri 03:26:00 AM 51.4100 0.0924 100° East 508 585 35,100 194 Climbing FlightAware ADS-B
Fri 03:26:12 AM 51.4053 0.1330 100° East 509 586 35,100  Level FlightAware ADS-B
Fri 03:26:31 AM 51.3977 0.2036 100° East 509 586 35,100  Level FlightAware ADS-B
Fri 03:26:46 AM 51.3951 0.2296 99° East 510 587 35,100 -194 Level FlightAware ADS-B
Fri 03:27:02 AM 51.3852 0.3224 100° East 510 587 35,000  Descending FlightAware ADS-B
Fri 03:27:23 AM 51.3798 0.3706 100° East 510 587 35,100  Climbing FlightAware ADS-B
Fri 03:27:39 AM 51.3699 0.4597 100° East 510 587 35,000  Descending FlightAware ADS-B
Fri 03:28:05 AM 51.3627 0.5187 101° East 510 587 35,100 162 Climbing FlightAware ADS-B
Fri 03:28:16 AM 51.3533 0.5962 101° East 510 587 35,100  Level FlightAware ADS-B
Fri 03:28:36 AM 51.3441 0.6702 101° East 512 589 35,100  Level FlightAware ADS-B
Fri 03:28:49 AM 51.3383 0.7185 101° East 512 589 35,100  Level FlightAware ADS-B
Fri 03:29:17 AM 51.3306 0.7817 101° East 512 589 35,100  Level FlightAware ADS-B
Fri 03:29:19 AM 51.3247 0.8300 101° East 513 590 35,100  Level FlightAware ADS-B
Fri 03:29:47 AM 51.3170 0.8929 101° East 513 590 35,100  Level FlightAware ADS-B
Fri 03:29:50 AM 51.3109 0.9450 101° East 513 590 35,100  Level FlightAware ADS-B
Fri 03:30:25 AM 51.3003 1.0342 101° East 512 589 35,100  Level FlightAware ADS-B
Fri 03:30:56 AM 51.2815 1.1900 101° East 515 593 35,100  Level FlightAware ADS-B
Fri 03:31:04 AM 51.2778 1.2199 101° East 513 590 35,100  Level FlightAware ADS-B
Fri 03:31:28 AM 51.2675 1.3057 101° East 516 594 35,100  Level FlightAware ADS-B
Fri 03:32:02 AM 51.2513 1.4369 101° East 520 598 35,100  Level FlightAware ADS-B
Fri 03:32:33 AM 51.2371 1.5498 101° East 521 600 35,100 -94 Level FlightAware ADS-B
Fri 03:33:06 AM 51.2248 1.6514 101° East 521 600 35,000 -94 Descending FlightAware ADS-B
Fri 03:33:37 AM 51.2064 1.7959 101° East 500 575 35,000 188 Level FlightAware UK
Fri 03:33:38 AM 51.2060 1.7940 101° East 516 594 35,100 750 Climbing FlightAware ADS-B
Fri 03:33:45 AM 51.2010 1.8230 105° East 515 593 35,100  Level FlightAware ADS-B
Fri 03:34:16 AM 51.1808 1.9314 107° East 512 589 35,100  Level FlightAware ADS-B
Fri 03:34:55 AM 51.1543 2.0721 107° East 511 588 35,100  Level FlightAware ADS-B
Fri 03:35:35 AM 51.1308 2.2024 106° East 514 592 35,100  Level FlightAware ADS-B
Fri 03:36:05 AM 51.1080 2.3290 106° East 514 592 35,100 -75 Level FlightAware ADS-B
Fri 03:36:55 AM 51.0751 2.5127 106° East 490 564 35,000  Descending FlightAware UK
Fri 03:37:00 AM 51.0740 2.5210 106° East 515 593 35,100  Climbing FlightAware ADS-B
Fri 03:37:31 AM 51.0513 2.6436 106° East 488 562 35,000  Descending FlightAware UK
Fri 03:37:37 AM 51.0480 2.6600 106° East 517 595 35,100  Climbing FlightAware ADS-B
Fri 03:38:07 AM 51.0272 2.7746 106° East 492 566 35,000  Descending FlightAware UK
Fri 03:38:11 AM 51.0250 2.7870 106° East 517 595 35,100 150 Climbing FlightAware ADS-B
Fri 03:38:47 AM 51.0000 2.9140 107° East 517 595 35,100  Level FlightAware ADS-B
Fri 03:39:23 AM 50.9770 3.0340 107° East 518 596 35,100  Level FlightAware ADS-B
Fri 03:39:55 AM 50.9540 3.1540 107° East 518 596 35,100  Level FlightAware ADS-B
Fri 03:40:30 AM 50.9290 3.2840 107° East 518 596 35,100  Level FlightAware ADS-B
Fri 03:41:07 AM 50.9020 3.4190 108° East 519 597 35,100  Level FlightAware ADS-B
Fri 03:41:39 AM 50.8800 3.5310 107° East 520 598 35,100  Level FlightAware ADS-B
Fri 03:42:16 AM 50.8540 3.6660 107° East 521 600 35,100  Level FlightAware ADS-B
Fri 03:42:52 AM 50.8280 3.7960 108° East 522 601 35,100  Level FlightAware ADS-B
Fri 03:43:28 AM 50.8010 3.9270 108° East 523 602 35,100 -87 Level FlightAware ADS-B
Fri 03:44:01 AM 50.7770 4.0470 108° East 522 601 35,000  Descending FlightAware ADS-B
Fri 03:44:37 AM 50.7500 4.1810 108° East 520 598 35,100 91 Climbing FlightAware ADS-B
Fri 03:45:07 AM 50.7280 4.2890 108° East 519 597 35,100  Level FlightAware ADS-B
Fri 03:45:46 AM 50.7000 4.4260 108° East 517 595 35,100  Level FlightAware ADS-B
Fri 03:46:18 AM 50.6760 4.5440 108° East 516 594 35,100  Level FlightAware ADS-B
Fri 03:46:59 AM 50.6450 4.6900 108° East 515 593 35,100  Level FlightAware ADS-B
Fri 03:47:36 AM 50.6170 4.8180 109° East 516 594 35,100  Level FlightAware ADS-B
Fri 03:48:14 AM 50.5880 4.9570 108° East 516 594 35,100  Level FlightAware ADS-B
Fri 03:48:48 AM 50.5630 5.0780 108° East 516 594 35,100  Level FlightAware ADS-B
Fri 03:49:18 AM 50.5400 5.1850 109° East 517 595 35,100  Level FlightAware ADS-B
Fri 03:49:50 AM 50.5150 5.3020 109° East 516 594 35,100  Level FlightAware ADS-B
Fri 03:50:28 AM 50.4870 5.4290 109° East 515 593 35,100  Level FlightAware ADS-B
Fri 03:51:00 AM 50.4630 5.5390 109° East 514 592 35,100  Level FlightAware ADS-B
Fri 03:51:39 AM 50.4320 5.6830 109° East 513 590 35,100  Level FlightAware ADS-B
Fri 03:52:09 AM 50.4080 5.7920 109° East 513 590 35,100 87 Level FlightAware ADS-B
Fri 03:52:48 AM 50.3790 5.9220 109° East 514 592 35,200 740 Climbing FlightAware ADS-B
Fri 03:53:22 AM 50.3520 6.0440 109° East 512 589 36,000 1,273 Climbing FlightAware ADS-B
Fri 03:53:54 AM 50.3260 6.1590 109° East 512 589 36,600 857 Climbing FlightAware ADS-B
Fri 03:54:32 AM 50.2880 6.2860 115° Southeast 508 585 37,000 423 Climbing FlightAware ADS-B
Fri 03:55:05 AM 50.2440 6.3840 125° Southeast 503 579 37,100  Climbing FlightAware ADS-B
Fri 03:55:42 AM 50.1870 6.4880 131° Southeast 500 575 37,000  Descending FlightAware ADS-B
Fri 03:56:19 AM 50.1320 6.5860 131° Southeast 499 574 37,100 83 Climbing FlightAware ADS-B
Fri 03:56:54 AM 50.0800 6.6810 130° Southeast 498 573 37,100  Level FlightAware ADS-B
Fri 03:57:25 AM 50.0330 6.7640 131° Southeast 495 570 37,100  Level FlightAware ADS-B
Fri 03:58:02 AM 49.9770 6.8530 134° Southeast 493 567 37,100  Level FlightAware ADS-B
Fri 03:58:38 AM 49.9210 6.9410 135° Southeast 492 566 37,100 -85 Level FlightAware ADS-B
Fri 03:59:13 AM 49.8630 7.0350 134° Southeast 491 565 37,000  Descending FlightAware ADS-B
Fri 03:59:47 AM 49.8060 7.1260 134° Southeast 491 565 37,100 88 Climbing FlightAware ADS-B
Fri 04:00:21 AM 49.7570 7.2050 134° Southeast 488 562 37,100  Level FlightAware ADS-B
Fri 04:00:56 AM 49.6990 7.2970 134° Southeast 487 560 37,100  Level FlightAware ADS-B
Fri 04:01:31 AM 49.6440 7.3820 135° Southeast 489 563 37,100  Level FlightAware ADS-B
Fri 04:02:06 AM 49.5840 7.4690 137° Southeast 492 566 37,100  Level FlightAware ADS-B
Fri 04:02:42 AM 49.5240 7.5470 140° Southeast 487 560 37,100  Level FlightAware ADS-B
Fri 04:03:16 AM 49.4630 7.6290 139° Southeast 490 564 37,100  Level FlightAware ADS-B
Fri 04:03:50 AM 49.4030 7.7080 139° Southeast 498 573 37,100  Level FlightAware ADS-B
Fri 04:04:26 AM 49.3410 7.7930 138° Southeast 494 568 37,100  Level FlightAware ADS-B
Fri 04:05:01 AM 49.2810 7.8750 138° Southeast 496 571 37,100  Level FlightAware ADS-B
Fri 04:05:37 AM 49.2200 7.9580 138° Southeast 497 572 37,100  Level FlightAware ADS-B
Fri 04:06:11 AM 49.1600 8.0380 139° Southeast 497 572 37,100  Level FlightAware ADS-B
Fri 04:06:46 AM 49.1010 8.1180 138° Southeast 498 573 37,100  Level FlightAware ADS-B
Fri 04:07:21 AM 49.0380 8.2020 139° Southeast 498 573 37,100  Level FlightAware ADS-B
Fri 04:07:55 AM 48.9760 8.2840 139° Southeast 497 572 37,100  Level FlightAware ADS-B
Fri 04:08:31 AM 48.9150 8.3650 139° Southeast 497 572 37,100  Level FlightAware ADS-B
Fri 04:09:06 AM 48.8510 8.4480 140° Southeast 495 570 37,100 -85 Level FlightAware ADS-B
Fri 04:09:42 AM 48.7900 8.5290 139° Southeast 495 570 37,000  Descending FlightAware ADS-B
Fri 04:10:17 AM 48.7330 8.6040 139° Southeast 494 568 37,100  Climbing FlightAware ADS-B
Fri 04:10:56 AM 48.6620 8.6960 139° Southeast 501 577 37,000  Descending FlightAware ADS-B
Fri 04:11:27 AM 48.6150 8.7570 139° Southeast 501 577 37,100 91 Climbing FlightAware ADS-B
Fri 04:12:02 AM 48.5450 8.8480 139° Southeast 501 577 37,100  Level FlightAware ADS-B
Fri 04:12:42 AM 48.4760 8.9370 139° Southeast 500 575 37,100  Level FlightAware ADS-B
Fri 04:13:12 AM 48.4220 9.0070 139° Southeast 502 578 37,100  Level FlightAware ADS-B
Fri 04:13:51 AM 48.3530 9.0960 139° Southeast 502 578 37,100  Level FlightAware ADS-B
Fri 04:14:26 AM 48.2930 9.1720 140° Southeast 502 578 37,100  Level FlightAware ADS-B
Fri 04:15:03 AM 48.2280 9.2560 139° Southeast 500 575 37,100  Level FlightAware ADS-B
Fri 04:15:35 AM 48.1710 9.3270 140° Southeast 500 575 37,100  Level FlightAware ADS-B
Fri 04:16:11 AM 48.1050 9.4120 139° Southeast 500 575 37,100  Level FlightAware ADS-B
Fri 04:16:42 AM 48.0510 9.4790 140° Southeast 500 575 37,100  Level FlightAware ADS-B
Fri 04:17:19 AM 47.9880 9.5590 140° Southeast 500 575 37,100  Level FlightAware ADS-B
Fri 04:17:58 AM 47.9190 9.6460 140° Southeast 500 575 37,100  Level FlightAware ADS-B
Fri 04:18:31 AM 47.8610 9.7190 140° Southeast 501 577 37,100  Level FlightAware ADS-B
Fri 04:19:05 AM 47.7970 9.7970 141° Southeast 503 579 37,100  Level FlightAware ADS-B
Fri 04:19:40 AM 47.7380 9.8720 139° Southeast 504 580 37,100  Level FlightAware ADS-B
Fri 04:20:15 AM 47.6730 9.9520 140° Southeast 506 582 37,100  Level FlightAware ADS-B
Fri 04:20:51 AM 47.6090 10.0300 141° Southeast 508 585 37,100  Level FlightAware ADS-B
Fri 04:21:28 AM 47.5420 10.1130 140° Southeast 509 586 37,100  Level FlightAware ADS-B
Fri 04:21:58 AM 47.4850 10.1840 140° Southeast 511 588 37,100  Level FlightAware ADS-B
Fri 04:22:36 AM 47.4190 10.2640 141° Southeast 511 588 37,100  Level FlightAware ADS-B
Fri 04:23:12 AM 47.3510 10.3460 141° Southeast 512 589 37,100  Level FlightAware ADS-B
Fri 04:23:49 AM 47.2850 10.4260 141° Southeast 512 589 37,100  Level FlightAware ADS-B
Fri 04:24:28 AM 47.2100 10.5170 140° Southeast 506 582 37,100  Level FlightAware ADS-B
Fri 04:25:03 AM 47.1470 10.5920 141° Southeast 507 583 37,100  Level FlightAware ADS-B
Fri 04:25:43 AM 47.0720 10.6740 143° Southeast 512 589 37,100  Level FlightAware ADS-B
Fri 04:26:20 AM 47.0030 10.7450 145° Southeast 514 592 37,100  Level FlightAware ADS-B
Fri 04:26:54 AM 46.9360 10.8190 143° Southeast 514 592 37,100  Level FlightAware ADS-B
Fri 04:27:28 AM 46.8700 10.8890 144° Southeast 507 583 37,100  Level FlightAware ADS-B
Fri 04:28:03 AM 46.8010 10.9630 144° Southeast 507 583 37,100 -86 Level FlightAware ADS-B
Fri 04:28:38 AM 46.7360 11.0380 142° Southeast 509 586 37,000  Descending FlightAware ADS-B
Fri 04:29:13 AM 46.6770 11.1250 135° Southeast 511 588 37,100 86 Climbing FlightAware ADS-B
Fri 04:29:48 AM 46.6230 11.2140 131° Southeast 518 596 37,100  Level FlightAware ADS-B
Fri 04:30:23 AM 46.5670 11.3090 131° Southeast 518 596 37,100  Level FlightAware ADS-B
Fri 04:30:58 AM 46.5130 11.3980 131° Southeast 514 592 37,100  Level FlightAware ADS-B
Fri 04:31:34 AM 46.4560 11.4910 132° Southeast 514 592 37,100  Level FlightAware ADS-B
Fri 04:32:08 AM 46.4010 11.5790 132° Southeast 514 592 37,100  Level FlightAware ADS-B
Fri 04:32:43 AM 46.3430 11.6720 132° Southeast 514 592 37,100  Level FlightAware ADS-B
Fri 04:33:19 AM 46.2890 11.7600 132° Southeast 515 593 37,100  Level FlightAware ADS-B
Fri 04:33:53 AM 46.2360 11.8550 129° Southeast 521 600 37,100  Level FlightAware ADS-B
Fri 04:34:28 AM 46.1860 11.9540 126° Southeast 522 601 37,100  Level FlightAware ADS-B
Fri 04:35:03 AM 46.1350 12.0540 126° Southeast 517 595 37,100  Level FlightAware ADS-B
Fri 04:35:38 AM 46.0880 12.1430 127° Southeast 518 596 37,100  Level FlightAware ADS-B
Fri 04:36:13 AM 46.0350 12.2460 127° Southeast 517 595 37,100  Level FlightAware ADS-B
Fri 04:36:48 AM 45.9830 12.3420 128° Southeast 518 596 37,100  Level FlightAware ADS-B
Fri 04:37:23 AM 45.9310 12.4420 127° Southeast 518 596 37,100  Level FlightAware ADS-B
Fri 04:37:58 AM 45.8810 12.5360 127° Southeast 518 596 37,100  Level FlightAware ADS-B
Fri 04:38:33 AM 45.8300 12.6330 127° Southeast 518 596 37,100  Level FlightAware ADS-B
Fri 04:39:08 AM 45.7800 12.7270 127° Southeast 519 597 37,100  Level FlightAware ADS-B
Fri 04:39:43 AM 45.7270 12.8290 127° Southeast 520 598 37,100  Level FlightAware ADS-B
Fri 04:40:18 AM 45.6810 12.9150 127° Southeast 520 598 37,100  Level FlightAware ADS-B
Fri 04:40:54 AM 45.6210 13.0280 127° Southeast 527 606 37,100  Level FlightAware ADS-B
Fri 04:41:29 AM 45.5700 13.1230 127° Southeast 528 608 37,100  Level FlightAware ADS-B
Fri 04:42:04 AM 45.5180 13.2200 127° Southeast 528 608 37,100  Level FlightAware ADS-B
Fri 04:42:39 AM 45.4660 13.3190 127° Southeast 529 609 37,100  Level FlightAware ADS-B
Fri 04:43:14 AM 45.4150 13.4130 128° Southeast 529 609 37,100  Level FlightAware ADS-B
Fri 04:43:59 AM 45.3490 13.5350 128° Southeast 530 610 37,100  Level FlightAware ADS-B
Fri 04:44:30 AM 45.3020 13.6230 127° Southeast 531 611 37,100  Level FlightAware ADS-B
Fri 04:45:04 AM 45.2500 13.7170 128° Southeast 531 611 37,100  Level FlightAware ADS-B
Fri 04:45:44 AM 45.1890 13.8270 128° Southeast 532 612 37,100  Level FlightAware ADS-B
Fri 04:46:14 AM 45.1450 13.9070 128° Southeast 528 608 37,100  Level FlightAware ADS-B
Fri 04:46:49 AM 45.0910 14.0090 127° Southeast 528 608 37,100  Level FlightAware ADS-B
Fri 04:47:25 AM 45.0380 14.1020 129° Southeast 530 610 37,100  Level FlightAware ADS-B
Fri 04:48:14 AM 44.9620 14.2400 128° Southeast 530 610 37,100  Level FlightAware ADS-B
Fri 04:48:59 AM 44.9000 14.3500 128° Southeast 536 617 37,100  Level FlightAware ADS-B
Fri 04:49:29 AM 44.8510 14.4400 128° Southeast 537 618 37,100  Level FlightAware ADS-B
Fri 04:50:04 AM 44.8020 14.5250 129° Southeast 538 619 37,100  Level FlightAware ADS-B
Fri 04:50:44 AM 44.7310 14.6510 128° Southeast 533 613 37,100  Level FlightAware ADS-B
Fri 04:51:14 AM 44.6870 14.7310 128° Southeast 533 613 37,100  Level FlightAware ADS-B
Fri 04:51:51 AM 44.6300 14.8320 128° Southeast 539 620 37,100  Level FlightAware ADS-B
Fri 04:52:26 AM 44.5800 14.9200 129° Southeast 539 620 37,100  Level FlightAware ADS-B
Fri 04:53:01 AM 44.5200 15.0240 129° Southeast 540 621 37,100  Level FlightAware ADS-B
Fri 04:53:59 AM 44.4310 15.1790 129° Southeast 542 624 37,100  Level FlightAware ADS-B
Fri 04:54:36 AM 44.3710 15.2860 128° Southeast 542 624 37,100  Level FlightAware ADS-B
Fri 04:55:06 AM 44.3230 15.3670 130° Southeast 543 625 37,100  Level FlightAware ADS-B
Fri 04:55:42 AM 44.2680 15.4630 129° Southeast 543 625 37,100  Level FlightAware ADS-B
Fri 04:56:19 AM 44.2100 15.5610 130° Southeast 544 626 37,100  Level FlightAware ADS-B
Fri 04:56:59 AM 44.1460 15.6720 129° Southeast 540 621 37,100  Level FlightAware ADS-B
Fri 04:57:34 AM 44.0900 15.7680 129° Southeast 541 623 37,100  Level FlightAware ADS-B
Fri 04:58:09 AM 44.0330 15.8650 129° Southeast 541 623 37,100  Level FlightAware ADS-B
Fri 04:58:44 AM 43.9790 15.9580 129° Southeast 542 624 37,100  Level FlightAware ADS-B
Fri 04:59:19 AM 43.9240 16.0500 130° Southeast 542 624 37,100  Level FlightAware ADS-B
Fri 04:59:59 AM 43.8580 16.1590 130° Southeast 544 626 37,100  Level FlightAware ADS-B
Fri 05:00:39 AM 43.7930 16.2700 129° Southeast 545 627 37,100  Level FlightAware ADS-B
Fri 05:01:14 AM 43.7370 16.3630 130° Southeast 551 634 37,100  Level FlightAware ADS-B
Fri 05:01:44 AM 43.6870 16.4470 129° Southeast 551 634 37,100  Level FlightAware ADS-B
Fri 05:02:19 AM 43.6300 16.5420 130° Southeast 552 635 37,100  Level FlightAware ADS-B
Fri 05:02:59 AM 43.5660 16.6470 130° Southeast 553 636 37,100  Level FlightAware ADS-B
Fri 05:03:34 AM 43.5070 16.7470 129° Southeast 554 638 37,100  Level FlightAware ADS-B
Fri 05:04:04 AM 43.4590 16.8230 131° Southeast 554 638 37,100  Level FlightAware ADS-B
Fri 05:04:39 AM 43.4020 16.9180 130° Southeast 555 639 37,100  Level FlightAware ADS-B
Fri 05:05:14 AM 43.3450 17.0120 130° Southeast 555 639 37,100  Level FlightAware ADS-B
Fri 05:05:54 AM 43.2760 17.1260 130° Southeast 552 635 37,100  Level FlightAware ADS-B
Fri 05:06:29 AM 43.2190 17.2180 130° Southeast 554 638 37,100  Level FlightAware ADS-B
Fri 05:07:00 AM 43.1680 17.3010 130° Southeast 554 638 37,100  Level FlightAware ADS-B
Fri 05:07:34 AM 43.1090 17.3930 131° Southeast 554 638 37,100  Level FlightAware ADS-B
Fri 05:08:14 AM 43.0440 17.4990 130° Southeast 554 638 37,100  Level FlightAware ADS-B
Fri 05:08:49 AM 42.9830 17.5960 131° Southeast 556 640 37,100  Level FlightAware ADS-B
Fri 05:09:24 AM 42.9310 17.6820 130° Southeast 556 640 37,100  Level FlightAware ADS-B
Fri 05:10:03 AM 42.8600 17.7920 131° Southeast 563 648 37,100  Level FlightAware ADS-B
Fri 05:10:41 AM 42.7960 17.8950 130° Southeast 565 650 37,100  Level FlightAware ADS-B
Fri 05:11:05 AM 42.7520 17.9650 131° Southeast 565 650 37,100 405 Level FlightAware ADS-B
Fri 05:11:55 AM 42.6660 18.0990 131° Southeast 563 648 37,600 837 Climbing FlightAware ADS-B
Fri 05:12:31 AM 42.6060 18.1950 130° Southeast 561 646 38,300 1,083 Climbing FlightAware ADS-B
Fri 05:13:07 AM 42.5430 18.2900 132° Southeast 561 646 38,900 667 Climbing FlightAware ADS-B
Fri 05:13:43 AM 42.4760 18.3820 135° Southeast 562 647 39,100 176 Climbing FlightAware ADS-B
Fri 05:14:15 AM 42.4200 18.4570 135° Southeast 562 647 39,100  Level FlightAware ADS-B
Fri 05:14:51 AM 42.3520 18.5480 135° Southeast 561 646 39,100  Level FlightAware ADS-B
Fri 05:15:28 AM 42.2860 18.6370 135° Southeast 561 646 39,100  Level FlightAware ADS-B
Fri 05:16:01 AM 42.2280 18.7160 135° Southeast 560 644 39,100  Level FlightAware ADS-B
Fri 05:16:35 AM 42.1620 18.8050 135° Southeast 560 644 39,100  Level FlightAware ADS-B
Fri 05:17:12 AM 42.0910 18.8980 136° Southeast 560 644 39,100  Level FlightAware ADS-B
Fri 05:17:48 AM 42.0250 18.9830 136° Southeast 561 646 39,100  Level FlightAware ADS-B
Fri 05:18:20 AM 41.9680 19.0610 134° Southeast 560 644 39,100  Level FlightAware ADS-B
Fri 05:18:56 AM 41.9000 19.1510 135° Southeast 560 644 39,100  Level FlightAware ADS-B
Fri 05:19:32 AM 41.8340 19.2360 136° Southeast 560 644 39,100  Level FlightAware ADS-B
Fri 05:20:08 AM 41.7660 19.3220 137° Southeast 560 644 39,100  Level FlightAware ADS-B
Fri 05:20:41 AM 41.7010 19.3970 139° Southeast 561 646 39,100  Level FlightAware ADS-B
Fri 05:21:16 AM 41.6310 19.4780 139° Southeast 561 646 39,100  Level FlightAware ADS-B
Fri 05:21:52 AM 41.5590 19.5580 140° Southeast 561 646 39,100  Level FlightAware ADS-B
Fri 05:22:22 AM 41.5030 19.6200 140° Southeast 559 643 39,100  Level FlightAware ADS-B
Fri 05:23:00 AM 41.4270 19.7080 139° Southeast 558 642 39,100  Level FlightAware ADS-B
Fri 05:23:44 AM 41.3440 19.8130 136° Southeast 555 639 39,100  Level FlightAware ADS-B
Fri 05:24:20 AM 41.2790 19.9000 135° Southeast 555 639 39,100  Level FlightAware ADS-B
Fri 05:24:52 AM 41.2220 19.9780 134° Southeast 554 638 39,100  Level FlightAware ADS-B
Fri 05:25:29 AM 41.1570 20.0650 135° Southeast 554 638 39,100  Level FlightAware ADS-B
Fri 05:26:06 AM 41.0910 20.1540 135° Southeast 553 636 39,100  Level FlightAware ADS-B
Fri 05:26:38 AM 41.0300 20.2360 135° Southeast 554 638 39,100  Level FlightAware ADS-B
Fri 05:27:14 AM 40.9650 20.3220 135° Southeast 553 636 39,100  Level FlightAware ADS-B
Fri 05:27:50 AM 40.9000 20.4080 135° Southeast 554 638 39,100  Level FlightAware ADS-B
Fri 05:28:22 AM 40.8440 20.4830 135° Southeast 555 639 39,100  Level FlightAware ADS-B
Fri 05:28:59 AM 40.7760 20.5690 136° Southeast 555 639 39,100  Level FlightAware ADS-B
Fri 05:29:36 AM 40.7060 20.6620 135° Southeast 555 639 39,100  Level FlightAware ADS-B
Fri 05:30:08 AM 40.6490 20.7360 135° Southeast 555 639 39,100  Level FlightAware ADS-B
Fri 05:30:44 AM 40.5830 20.8220 135° Southeast 556 640 39,100  Level FlightAware ADS-B
Fri 05:31:18 AM 40.5220 20.9020 135° Southeast 555 639 39,100  Level FlightAware ADS-B
Fri 05:31:56 AM 40.4490 20.9920 137° Southeast 555 639 39,100  Level FlightAware ADS-B
Fri 05:32:26 AM 40.3900 21.0590 139° Southeast 556 640 39,100  Level FlightAware ADS-B
Fri 05:33:04 AM 40.3190 21.1420 138° Southeast 556 640 39,100  Level FlightAware ADS-B
Fri 05:33:40 AM 40.2480 21.2240 139° Southeast 556 640 39,100  Level FlightAware ADS-B
Fri 05:34:14 AM 40.1820 21.2990 139° Southeast 556 640 39,100  Level FlightAware ADS-B
Fri 05:34:50 AM 40.1120 21.3790 139° Southeast 557 641 39,100  Level FlightAware ADS-B
Fri 05:35:22 AM 40.0500 21.4490 139° Southeast 557 641 39,100  Level FlightAware ADS-B
Fri 05:35:56 AM 39.9840 21.5240 139° Southeast 558 642 39,100  Level FlightAware ADS-B
Fri 05:36:34 AM 39.9090 21.6080 139° Southeast 558 642 39,100  Level FlightAware ADS-B
Fri 05:37:10 AM 39.8410 21.6860 139° Southeast 559 643 39,100  Level FlightAware ADS-B
Fri 05:37:42 AM 39.7770 21.7580 139° Southeast 559 643 39,100  Level FlightAware ADS-B
Fri 05:38:18 AM 39.7080 21.8350 139° Southeast 559 643 39,100  Level FlightAware ADS-B
Fri 05:38:54 AM 39.6370 21.9140 139° Southeast 559 643 39,100  Level FlightAware ADS-B
Fri 05:39:28 AM 39.5700 21.9880 140° Southeast 559 643 39,100  Level FlightAware ADS-B
Fri 05:40:02 AM 39.5020 22.0650 139° Southeast 559 643 39,100  Level FlightAware ADS-B
Fri 05:40:40 AM 39.4300 22.1450 139° Southeast 558 642 39,100  Level FlightAware ADS-B
Fri 05:41:12 AM 39.3660 22.2150 140° Southeast 558 642 39,100  Level FlightAware ADS-B
Fri 05:41:48 AM 39.2940 22.2950 139° Southeast 560 644 39,100  Level FlightAware ADS-B
Fri 05:42:24 AM 39.2240 22.3730 139° Southeast 560 644 39,100  Level FlightAware ADS-B
Fri 05:42:58 AM 39.1570 22.4470 139° Southeast 560 644 39,100  Level FlightAware ADS-B
Fri 05:43:34 AM 39.0870 22.5220 140° Southeast 561 646 39,100 -83 Level FlightAware ADS-B
Fri 05:44:10 AM 39.0140 22.6020 140° Southeast 561 646 39,000  Descending FlightAware ADS-B
Fri 05:44:42 AM 38.9510 22.6710 140° Southeast 561 646 39,100 88 Climbing FlightAware ADS-B
Fri 05:45:18 AM 38.8840 22.7450 139° Southeast 561 646 39,100  Level FlightAware ADS-B
Fri 05:45:55 AM 38.8070 22.8260 141° Southeast 561 646 39,100  Level FlightAware ADS-B
Fri 05:46:29 AM 38.7390 22.9010 139° Southeast 559 643 39,100  Level FlightAware ADS-B
Fri 05:47:03 AM 38.6710 22.9740 140° Southeast 558 642 39,100  Level FlightAware ADS-B
Fri 05:47:39 AM 38.6020 23.0480 140° Southeast 556 640 39,100  Level FlightAware ADS-B
Fri 05:48:15 AM 38.5290 23.1260 140° Southeast 554 638 39,100 -111 Level FlightAware ADS-B
Fri 05:48:33 AM 38.5000 23.1670 132° Southeast 558 642 39,000  Descending FlightAware ADS-B
Fri 05:49:10 AM 38.4460 23.2710 124° Southeast 556 640 39,100 85 Climbing FlightAware ADS-B
Fri 05:49:44 AM 38.3970 23.3630 124° Southeast 554 638 39,100  Level FlightAware ADS-B
Fri 05:50:19 AM 38.3470 23.4540 125° Southeast 554 638 39,100  Level FlightAware ADS-B
Fri 05:50:56 AM 38.2920 23.5520 126° Southeast 552 635 39,100  Level FlightAware ADS-B
Fri 05:51:30 AM 38.2410 23.6450 125° Southeast 554 638 39,100  Level FlightAware ADS-B
Fri 05:52:05 AM 38.1910 23.7400 124° Southeast 554 638 39,100  Level FlightAware ADS-B
Fri 05:52:42 AM 38.1390 23.8410 123° Southeast 555 639 39,100  Level FlightAware ADS-B
Fri 05:53:16 AM 38.0910 23.9340 123° Southeast 555 639 39,100  Level FlightAware ADS-B
Fri 05:53:49 AM 38.0440 24.0230 124° Southeast 555 639 39,100  Level FlightAware ADS-B
Fri 05:54:26 AM 37.9910 24.1230 124° Southeast 556 640 39,100  Level FlightAware ADS-B
Fri 05:55:01 AM 37.9410 24.2170 124° Southeast 556 640 39,100  Level FlightAware ADS-B
Fri 05:55:35 AM 37.8920 24.3060 125° Southeast 556 640 39,100  Level FlightAware ADS-B
Fri 05:56:10 AM 37.8410 24.4030 124° Southeast 558 642 39,100  Level FlightAware ADS-B
Fri 05:56:47 AM 37.7870 24.5030 124° Southeast 560 644 39,100  Level FlightAware ADS-B
Fri 05:57:23 AM 37.7340 24.6000 125° Southeast 558 642 39,100  Level FlightAware ADS-B
Fri 05:57:54 AM 37.6900 24.6810 124° Southeast 559 643 39,100  Level FlightAware ADS-B
Fri 05:58:31 AM 37.6360 24.7840 123° Southeast 557 641 39,100  Level FlightAware ADS-B
Fri 05:59:06 AM 37.5860 24.8750 125° Southeast 557 641 39,100  Level FlightAware ADS-B
Fri 05:59:43 AM 37.5310 24.9760 124° Southeast 556 640 39,100  Level FlightAware ADS-B
Fri 06:00:14 AM 37.4870 25.0560 125° Southeast 556 640 39,100  Level FlightAware ADS-B
Fri 06:00:50 AM 37.4340 25.1550 124° Southeast 554 638 39,100  Level FlightAware ADS-B
Fri 06:01:25 AM 37.3830 25.2480 125° Southeast 553 636 39,100  Level FlightAware ADS-B
Fri 06:02:02 AM 37.3300 25.3430 125° Southeast 555 639 39,100  Level FlightAware ADS-B
Fri 06:02:32 AM 37.2850 25.4260 124° Southeast 556 640 39,100  Level FlightAware ADS-B
Fri 06:03:11 AM 37.2280 25.5290 125° Southeast 558 642 39,100  Level FlightAware ADS-B
Fri 06:03:46 AM 37.1760 25.6220 125° Southeast 558 642 39,100  Level FlightAware ADS-B
Fri 06:04:20 AM 37.1260 25.7120 125° Southeast 560 644 39,100  Level FlightAware ADS-B
Fri 06:04:55 AM 37.0750 25.8030 125° Southeast 560 644 39,100  Level FlightAware ADS-B
Fri 06:05:32 AM 37.0190 25.9040 125° Southeast 560 644 39,100  Level FlightAware ADS-B
Fri 06:06:03 AM 36.9740 25.9840 125° Southeast 560 644 39,100  Level FlightAware ADS-B
Fri 06:06:41 AM 36.9170 26.0840 125° Southeast 560 644 39,100  Level FlightAware ADS-B
Fri 06:07:17 AM 36.8640 26.1800 125° Southeast 559 643 39,100  Level FlightAware ADS-B
Fri 06:07:49 AM 36.8170 26.2640 125° Southeast 558 642 39,100  Level FlightAware ADS-B
Fri 06:08:22 AM 36.7690 26.3480 125° Southeast 559 643 39,100  Level FlightAware ADS-B
Fri 06:08:59 AM 36.7110 26.4480 126° Southeast 560 644 39,100  Level FlightAware ADS-B
Fri 06:09:35 AM 36.6580 26.5430 125° Southeast 562 647 39,100  Level FlightAware ADS-B
Fri 06:10:10 AM 36.6070 26.6330 125° Southeast 562 647 39,100  Level FlightAware ADS-B
Fri 06:10:44 AM 36.5550 26.7230 126° Southeast 563 648 39,100  Level FlightAware ADS-B
Fri 06:11:20 AM 36.5000 26.8200 125° Southeast 564 649 39,100  Level FlightAware ADS-B
Fri 06:12:01 AM 36.4450 26.9150 126° Southeast 564 649 39,100  Level FlightAware ADS-B
Fri 06:12:46 AM 36.3760 27.0340 126° Southeast 564 649 39,100  Level FlightAware ADS-B
Fri 06:13:20 AM 36.3170 27.1350 126° Southeast 559 643 39,100  Level FlightAware ADS-B
Fri 06:14:00 AM 36.2560 27.2390 126° Southeast 558 642 39,100  Level FlightAware ADS-B
Fri 06:14:34 AM 36.2110 27.3200 125° Southeast 558 642 39,100  Level FlightAware ADS-B
Fri 06:15:14 AM 36.1430 27.4330 127° Southeast 554 638 39,100  Level FlightAware ADS-B
Fri 06:15:46 AM 36.0960 27.5120 126° Southeast 551 634 39,100  Level FlightAware ADS-B
Fri 06:16:22 AM 36.0410 27.6070 126° Southeast 553 636 39,100  Level FlightAware ADS-B
Fri 06:16:58 AM 35.9880 27.6960 126° Southeast 552 635 39,100  Level FlightAware ADS-B
Fri 06:17:34 AM 35.9340 27.7880 126° Southeast 552 635 39,100  Level FlightAware ADS-B
Fri 06:18:06 AM 35.8850 27.8710 126° Southeast 549 632 39,100  Level FlightAware ADS-B
Fri 06:18:44 AM 35.8290 27.9670 126° Southeast 548 631 39,100  Level FlightAware ADS-B
Fri 06:19:16 AM 35.7810 28.0450 127° Southeast 548 631 39,100  Level FlightAware ADS-B
Fri 06:19:52 AM 35.7260 28.1380 126° Southeast 548 631 39,100  Level FlightAware ADS-B
Fri 06:20:28 AM 35.6720 28.2280 126° Southeast 545 627 39,100  Level FlightAware ADS-B
Fri 06:21:04 AM 35.6180 28.3180 126° Southeast 545 627 39,100  Level FlightAware ADS-B
Fri 06:21:36 AM 35.5730 28.3930 126° Southeast 543 625 39,100  Level FlightAware ADS-B
Fri 06:22:10 AM 35.5200 28.4820 126° Southeast 542 624 39,100  Level FlightAware ADS-B
Fri 06:22:44 AM 35.4690 28.5660 127° Southeast 542 624 39,100  Level FlightAware ADS-B
Fri 06:23:20 AM 35.4160 28.6520 127° Southeast 541 623 39,100  Level FlightAware ADS-B
Fri 06:23:56 AM 35.3630 28.7410 126° Southeast 543 625 39,100  Level FlightAware ADS-B
Fri 06:24:32 AM 35.3070 28.8320 127° Southeast 543 625 39,100  Level FlightAware ADS-B
Fri 06:25:06 AM 35.2580 28.9130 127° Southeast 542 624 39,100  Level FlightAware ADS-B
Fri 06:25:40 AM 35.2060 28.9990 126° Southeast 541 623 39,100  Level FlightAware ADS-B
Fri 06:26:16 AM 35.1510 29.0870 127° Southeast 541 623 39,100  Level FlightAware ADS-B
Fri 06:27:03 AM 35.0890 29.1890 127° Southeast 542 624 39,100  Level FlightAware ADS-B
Fri 06:27:40 AM 35.0260 29.2900 127° Southeast 541 623 39,100  Level FlightAware ADS-B
Fri 06:28:17 AM 34.9750 29.3730 127° Southeast 539 620 39,100  Level FlightAware ADS-B
Fri 06:28:55 AM 34.9250 29.4550 127° Southeast 538 619 39,100  Level FlightAware ADS-B
Fri 06:29:32 AM 34.8600 29.5580 128° Southeast 535 616 39,100  Level FlightAware ADS-B
Fri 06:30:06 AM 34.8080 29.6420 127° Southeast 534 615 39,100  Level FlightAware ADS-B
Fri 06:30:41 AM 34.7570 29.7240 127° Southeast 534 615 39,100  Level FlightAware ADS-B
Fri 06:31:17 AM 34.7010 29.8120 128° Southeast 533 613 39,100  Level FlightAware ADS-B
Fri 06:31:53 AM 34.6490 29.8960 127° Southeast 535 616 39,100  Level FlightAware ADS-B
Fri 06:32:32 AM 34.6000 29.9750 127° Southeast 535 616 39,100  Level FlightAware ADS-B
Fri 06:33:08 AM 34.5480 30.0720 123° Southeast 692 796 39,100  Level FlightAware ADS-B
Fri 06:33:48 AM 34.4950 30.1810 121° Southeast 550 633 39,100  Level FlightAware ADS-B
Fri 06:34:24 AM 34.4450 30.2880 120° Southeast 551 634 39,100  Level FlightAware ADS-B
Fri 06:35:04 AM 34.3940 30.3950 120° Southeast 551 634 39,100  Level FlightAware ADS-B
Fri 06:35:35 AM 34.3540 30.4770 121° Southeast 551 634 39,100  Level FlightAware ADS-B
Fri 06:36:10 AM 34.3110 30.5680 120° Southeast 551 634 39,100  Level FlightAware ADS-B
Fri 06:36:46 AM 34.2650 30.6610 121° Southeast 549 632 39,100  Level FlightAware ADS-B
Fri 06:37:20 AM 34.2200 30.7530 121° Southeast 548 631 39,100  Level FlightAware ADS-B
Fri 06:38:01 AM 34.1660 30.8640 120° Southeast 547 629 39,100  Level FlightAware ADS-B
Fri 06:38:36 AM 34.1210 30.9560 121° Southeast 546 628 39,100  Level FlightAware ADS-B
Fri 06:39:12 AM 34.0760 31.0510 120° Southeast 546 628 39,100  Level FlightAware ADS-B
Fri 06:39:46 AM 34.0310 31.1420 121° Southeast 545 627 39,100  Level FlightAware ADS-B
Fri 06:40:21 AM 33.9900 31.2230 121° Southeast 543 625 39,100  Level FlightAware ADS-B
Fri 06:40:56 AM 33.9420 31.3220 120° Southeast 543 625 39,100  Level FlightAware ADS-B
Fri 06:41:32 AM 33.8960 31.4150 121° Southeast 540 621 39,100  Level FlightAware ADS-B
Fri 06:42:11 AM 33.8460 31.5160 121° Southeast 540 621 39,100  Level FlightAware ADS-B
Fri 06:42:42 AM 33.8060 31.5950 121° Southeast 539 620 39,100  Level FlightAware ADS-B
Fri 06:43:17 AM 33.7620 31.6850 120° Southeast 538 619 39,100  Level FlightAware ADS-B
Fri 06:43:52 AM 33.7170 31.7750 121° Southeast 537 618 39,100  Level FlightAware ADS-B
Fri 06:44:26 AM 33.6740 31.8590 122° Southeast 535 616 39,100  Level FlightAware ADS-B
Fri 06:45:01 AM 33.6280 31.9510 121° Southeast 536 617 39,100  Level FlightAware ADS-B
Fri 06:45:37 AM 33.5830 32.0430 120° Southeast 537 618 39,100  Level FlightAware ADS-B
Fri 06:46:12 AM 33.5380 32.1320 121° Southeast 537 618 39,100  Level FlightAware ADS-B
Fri 06:46:48 AM 33.4920 32.2240 121° Southeast 538 619 39,100  Level FlightAware ADS-B
Fri 06:47:23 AM 33.4450 32.3130 122° Southeast 534 615 39,100 -494 Level FlightAware ADS-B
Fri 06:48:13 AM 33.3830 32.4380 121° Southeast 540 621 38,400 -1,271 Descending FlightAware ADS-B
Fri 06:48:48 AM 33.3380 32.5260 121° Southeast 536 617 37,300 -2,189 Descending FlightAware ADS-B
Fri 06:49:27 AM 33.2870 32.6270 121° Southeast 529 609 35,700 -2,320 Descending FlightAware ADS-B
Fri 06:50:03 AM 33.2430 32.7110 122° Southeast 524 603 34,400 -2,282 Descending FlightAware ADS-B
Fri 06:50:38 AM 33.1980 32.7990 121° Southeast 518 596 33,000 -1,500 Descending FlightAware ADS-B
Fri 06:51:15 AM 33.1560 32.8800 122° Southeast 517 595 32,600 -2,143 Descending FlightAware ADS-B
Fri 06:51:48 AM 33.1130 32.9620 122° Southeast 505 581 30,500 -3,000 Descending FlightAware ADS-B
Fri 06:52:23 AM 33.0720 33.0420 121° Southeast 499 574 29,200 -2,351 Descending FlightAware ADS-B
Fri 06:53:02 AM 33.0220 33.1400 121° Southeast 488 562 27,600 -1,500 Descending FlightAware ADS-B
Fri 06:53:35 AM 32.9890 33.2010 123° Southeast 488 562 27,400 -1,553 Descending FlightAware ADS-B
Fri 06:54:27 AM 32.9260 33.3210 122° Southeast 469 540 25,400 -2,775 Descending FlightAware ADS-B
Fri 06:54:55 AM 32.8850 33.3810 129° Southeast 445 512 23,700 -3,081 Descending FlightAware ADS-B
Fri 06:55:04 AM 32.8740 33.3980 128° Southeast 444 511 23,500 -1,750 Descending FlightAware ADS-B
Fri 06:55:43 AM 32.8280 33.4750 125° Southeast 430 495 22,300 -1,886 Descending FlightAware ADS-B
Fri 06:56:14 AM 32.7910 33.5360 126° Southeast 419 482 21,300 -1,791 Descending FlightAware ADS-B
Fri 06:56:50 AM 32.7520 33.6020 125° Southeast 409 471 20,300 -1,644 Descending FlightAware ADS-B
Fri 06:57:27 AM 32.7110 33.6710 125° Southeast 398 458 19,300 -1,667 Descending FlightAware ADS-B
Fri 06:58:02 AM 32.6740 33.7330 125° Southeast 389 448 18,300 -1,676 Descending FlightAware ADS-B
Fri 06:58:35 AM 32.6390 33.7900 126° Southeast 393 452 17,400 -1,676 Descending FlightAware ADS-B
Fri 06:59:10 AM 32.6030 33.8500 125° Southeast 383 441 16,400 -1,606 Descending FlightAware ADS-B
Fri 06:59:46 AM 32.5670 33.9100 125° Southeast 372 428 15,500 -1,500 Descending FlightAware ADS-B
Fri 07:00:22 AM 32.5300 33.9710 126° Southeast 363 418 14,600 -1,478 Descending FlightAware ADS-B
Fri 07:00:55 AM 32.4970 34.0240 126° Southeast 363 418 13,800 -1,500 Descending FlightAware ADS-B
Fri 07:01:30 AM 32.4630 34.0800 126° Southeast 370 426 12,900 -1,397 Descending FlightAware ADS-B
Fri 07:02:08 AM 32.4260 34.1410 126° Southeast 356 410 12,100 -1,043 Descending FlightAware ADS-B
Fri 07:02:39 AM 32.3960 34.1900 126° Southeast 334 384 11,700 -1,164 Descending FlightAware ADS-B
Fri 07:03:15 AM 32.3650 34.2410 126° Southeast 318 366 10,800 -1,688 Descending FlightAware ADS-B
Fri 07:03:43 AM 32.3410 34.2800 126° Southeast 313 360 9,900 -1,895 Descending FlightAware ADS-B
Fri 07:04:12 AM 32.3170 34.3200 125° Southeast 308 354 9,000 -1,034 Descending FlightAware ADS-B
Fri 07:04:41 AM 32.2950 34.3540 127° Southeast 308 354 8,900 -146 Descending FlightAware ADS-B
Fri 07:04:53 AM 32.2870 34.3680 124° Southeast 308 354 8,900  Level FlightAware ADS-B
Fri 07:05:17 AM 32.2700 34.3960 126° Southeast 308 354 8,900  Level FlightAware ADS-B
Fri 07:05:41 AM 32.2530 34.4240 126° Southeast 308 354 8,900  Level FlightAware ADS-B
Fri 07:06:05 AM 32.2350 34.4510 128° Southeast 308 354 8,900 -1,418 Level FlightAware ADS-B
Fri 07:07:51 AM 32.1580 34.5990 115° Southeast 5,000 -1,660 Descending FlightAware ADS-B
Fri 07:08:00 AM 32.0753 34.7201 115° Southeast  Level FlightAware Approximate
Fri 07:08:26 AM 32.1370 34.6380 122° Southeast 236 272 5,000  Level FlightAware ADS-B
Fri 07:08:44 AM 32.1230 34.6630 123° Southeast 239 275 5,000  Level FlightAware ADS-B
Fri 07:09:02 AM 32.1140 34.6790 124° Southeast 239 275 5,000  Level FlightAware ADS-B
Fri 07:09:26 AM 32.0990 34.7070 122° Southeast 240 276 5,000  Level FlightAware ADS-B
Fri 07:09:45 AM 32.0880 34.7270 123° Southeast 239 275 5,000  Level FlightAware ADS-B
Fri 07:10:09 AM 32.0740 34.7510 125° Southeast 239 275 5,000  Level FlightAware ADS-B
Fri 07:10:21 AM 32.0650 34.7670 124° Southeast 239 275 5,000 -419 Level FlightAware ADS-B
Fri 07:10:52 AM 32.0430 34.7950 133° Southeast 232 267 4,700 -441 Descending FlightAware ADS-B
Fri 07:11:29 AM 32.0230 34.8180 136° Southeast 234 269 4,500 -197 Descending FlightAware ADS-B
Fri 07:11:53 AM 31.9960 34.8480 137° Southeast 213 245 4,500 125 Level FlightAware ADS-B
Fri 07:12:17 AM 31.9790 34.8670 137° Southeast 216 249 4,600 -419 Climbing FlightAware ADS-B
Fri 07:12:36 AM 31.9680 34.8840 127° Southeast 217 250 4,200 -1,200 Descending FlightAware ADS-B
Fri 07:12:42 AM 31.9660 34.8910 109° East 218 251 4,100 -1,000 Descending FlightAware ADS-B
Fri 07:12:48 AM 31.9650 34.8940 111° Southeast 217 250 4,000 -938 Descending FlightAware ADS-B
Fri 07:13:14 AM 31.9730 34.9250 73° East 200 230 3,600 -1,111 Descending FlightAware ADS-B
Fri 07:13:42 AM 31.9860 34.9480 56° Northeast 181 208 3,000 -1,364 Descending FlightAware ADS-B
Fri 07:13:58 AM 31.9940 34.9590 49° Northeast 181 208 2,600 -571 Descending FlightAware ADS-B
Fri 07:14:24 AM 32.0050 34.9760 53° Northeast 181 208 2,600  Level FlightAware ADS-B
Fri 07:17:00 AM 32.0095 34.8769 273° West  Level Estimated

Login

Don't have an account? Register now (free) for customized features, flight alerts, and more!